<?xml version="1.0" encoding="UTF-8" standalone="no" ?>
<gpx xmlns="http://www.topografix.com/GPX/1/1" xmlns:xsi="http://www.w3.org/2001/XMLSchema-instance" xsi:schemaLocation="http://www.topografix.com/GPX/1/1 http://www.topografix.com/GPX/1/1/gpx.xsd" version="1.1" creator="VisuGPX - https://www.visugpx.com">
  <metadata>
    <name>Tour du Vercors en vélo</name>
    <desc><![CDATA[Tour du Vercors en vélo]]></desc>
  </metadata>
  <trk>
    <name><![CDATA[Tour du Vercors en vélo_2]]></name>
    <trkseg>
      <trkpt lat="45.01454" lon="5.29118">
        <ele>259</ele>
        <time>2019-07-11T15:08:12Z</time>
      </trkpt>
      <trkpt lat="45.01454" lon="5.29118">
        <ele>259</ele>
        <time>2019-07-11T15:08:12Z</time>
      </trkpt>
      <trkpt lat="45.01454" lon="5.29118">
        <ele>259</ele>
        <time>2019-07-11T15:08:12Z</time>
      </trkpt>
      <trkpt lat="45.01454" lon="5.29118">
        <ele>259</ele>
        <time>2019-07-11T15:08:12Z</time>
      </trkpt>
      <trkpt lat="45.01475" lon="5.29125">
        <ele>258</ele>
        <time>2019-07-11T15:08:23Z</time>
      </trkpt>
      <trkpt lat="45.01537" lon="5.2915">
        <ele>258</ele>
        <time>2019-07-11T15:08:37Z</time>
      </trkpt>
      <trkpt lat="45.01514" lon="5.29252">
        <ele>265</ele>
        <time>2019-07-11T15:08:38Z</time>
      </trkpt>
      <trkpt lat="45.0152" lon="5.29258">
        <ele>265</ele>
        <time>2019-07-11T15:08:43Z</time>
      </trkpt>
      <trkpt lat="45.0155" lon="5.29269">
        <ele>265</ele>
        <time>2019-07-11T15:09:22Z</time>
      </trkpt>
      <trkpt lat="45.01765" lon="5.29326">
        <ele>262</ele>
        <time>2019-07-11T15:09:24Z</time>
      </trkpt>
      <trkpt lat="45.0177" lon="5.2932">
        <ele>262</ele>
        <time>2019-07-11T15:09:28Z</time>
      </trkpt>
      <trkpt lat="45.01783" lon="5.29291">
        <ele>259</ele>
        <time>2019-07-11T15:09:29Z</time>
      </trkpt>
      <trkpt lat="45.01784" lon="5.29285">
        <ele>259</ele>
        <time>2019-07-11T15:09:34Z</time>
      </trkpt>
      <trkpt lat="45.01814" lon="5.29283">
        <ele>258</ele>
        <time>2019-07-11T15:09:39Z</time>
      </trkpt>
      <trkpt lat="45.01842" lon="5.29277">
        <ele>257</ele>
        <time>2019-07-11T15:09:43Z</time>
      </trkpt>
      <trkpt lat="45.01865" lon="5.29276">
        <ele>256</ele>
        <time>2019-07-11T15:09:47Z</time>
      </trkpt>
      <trkpt lat="45.01888" lon="5.29279">
        <ele>255</ele>
        <time>2019-07-11T15:09:53Z</time>
      </trkpt>
      <trkpt lat="45.01921" lon="5.29291">
        <ele>255</ele>
        <time>2019-07-11T15:10:15Z</time>
      </trkpt>
      <trkpt lat="45.02031" lon="5.29367">
        <ele>255</ele>
        <time>2019-07-11T15:10:50Z</time>
      </trkpt>
      <trkpt lat="45.02203" lon="5.29494">
        <ele>254</ele>
        <time>2019-07-11T15:11:30Z</time>
      </trkpt>
      <trkpt lat="45.02405" lon="5.29633">
        <ele>251</ele>
        <time>2019-07-11T15:11:58Z</time>
      </trkpt>
      <trkpt lat="45.02548" lon="5.29737">
        <ele>245</ele>
        <time>2019-07-11T15:12:02Z</time>
      </trkpt>
      <trkpt lat="45.02566" lon="5.29753">
        <ele>245</ele>
        <time>2019-07-11T15:13:07Z</time>
      </trkpt>
      <trkpt lat="45.02893" lon="5.29987">
        <ele>246</ele>
        <time>2019-07-11T15:13:37Z</time>
      </trkpt>
      <trkpt lat="45.03039" lon="5.30111">
        <ele>249</ele>
        <time>2019-07-11T15:13:45Z</time>
      </trkpt>
      <trkpt lat="45.03073" lon="5.30151">
        <ele>249</ele>
        <time>2019-07-11T15:13:47Z</time>
      </trkpt>
      <trkpt lat="45.03078" lon="5.30159">
        <ele>249</ele>
        <time>2019-07-11T15:13:49Z</time>
      </trkpt>
      <trkpt lat="45.03081" lon="5.30175">
        <ele>249</ele>
        <time>2019-07-11T15:13:54Z</time>
      </trkpt>
      <trkpt lat="45.0308" lon="5.30214">
        <ele>249</ele>
        <time>2019-07-11T15:14:32Z</time>
      </trkpt>
      <trkpt lat="45.03047" lon="5.30516">
        <ele>249</ele>
        <time>2019-07-11T15:14:41Z</time>
      </trkpt>
      <trkpt lat="45.03041" lon="5.30588">
        <ele>249</ele>
        <time>2019-07-11T15:14:45Z</time>
      </trkpt>
      <trkpt lat="45.03033" lon="5.30618">
        <ele>247</ele>
        <time>2019-07-11T15:14:50Z</time>
      </trkpt>
      <trkpt lat="45.03017" lon="5.30644">
        <ele>247</ele>
        <time>2019-07-11T15:15:08Z</time>
      </trkpt>
      <trkpt lat="45.02942" lon="5.30743">
        <ele>244</ele>
        <time>2019-07-11T15:15:14Z</time>
      </trkpt>
      <trkpt lat="45.02921" lon="5.30779">
        <ele>243</ele>
        <time>2019-07-11T15:15:29Z</time>
      </trkpt>
      <trkpt lat="45.02873" lon="5.30884">
        <ele>241</ele>
        <time>2019-07-11T15:15:35Z</time>
      </trkpt>
      <trkpt lat="45.0286" lon="5.30923">
        <ele>240</ele>
        <time>2019-07-11T15:15:38Z</time>
      </trkpt>
      <trkpt lat="45.02861" lon="5.30949">
        <ele>237</ele>
        <time>2019-07-11T15:15:41Z</time>
      </trkpt>
      <trkpt lat="45.02865" lon="5.30975">
        <ele>234</ele>
        <time>2019-07-11T15:15:55Z</time>
      </trkpt>
      <trkpt lat="45.02905" lon="5.31064">
        <ele>227</ele>
        <time>2019-07-11T15:15:57Z</time>
      </trkpt>
      <trkpt lat="45.02914" lon="5.31074">
        <ele>227</ele>
        <time>2019-07-11T15:15:59Z</time>
      </trkpt>
      <trkpt lat="45.02927" lon="5.31071">
        <ele>228</ele>
        <time>2019-07-11T15:16:08Z</time>
      </trkpt>
      <trkpt lat="45.0297" lon="5.31032">
        <ele>228</ele>
        <time>2019-07-11T15:16:13Z</time>
      </trkpt>
      <trkpt lat="45.02996" lon="5.31018">
        <ele>228</ele>
        <time>2019-07-11T15:16:37Z</time>
      </trkpt>
      <trkpt lat="45.03125" lon="5.30976">
        <ele>235</ele>
        <time>2019-07-11T15:16:40Z</time>
      </trkpt>
      <trkpt lat="45.03144" lon="5.30978">
        <ele>236</ele>
        <time>2019-07-11T15:16:54Z</time>
      </trkpt>
      <trkpt lat="45.0322" lon="5.31007">
        <ele>241</ele>
        <time>2019-07-11T15:16:59Z</time>
      </trkpt>
      <trkpt lat="45.03241" lon="5.31026">
        <ele>243</ele>
        <time>2019-07-11T15:17:01Z</time>
      </trkpt>
      <trkpt lat="45.03244" lon="5.31045">
        <ele>244</ele>
        <time>2019-07-11T15:17:03Z</time>
      </trkpt>
      <trkpt lat="45.03254" lon="5.31054">
        <ele>246</ele>
        <time>2019-07-11T15:17:07Z</time>
      </trkpt>
      <trkpt lat="45.03266" lon="5.31076">
        <ele>248</ele>
        <time>2019-07-11T15:17:10Z</time>
      </trkpt>
      <trkpt lat="45.03274" lon="5.31101">
        <ele>251</ele>
        <time>2019-07-11T15:17:12Z</time>
      </trkpt>
      <trkpt lat="45.03276" lon="5.31117">
        <ele>252</ele>
        <time>2019-07-11T15:17:19Z</time>
      </trkpt>
      <trkpt lat="45.03269" lon="5.31169">
        <ele>255</ele>
        <time>2019-07-11T15:17:54Z</time>
      </trkpt>
      <trkpt lat="45.03213" lon="5.31434">
        <ele>268</ele>
        <time>2019-07-11T15:18:04Z</time>
      </trkpt>
      <trkpt lat="45.0319" lon="5.31514">
        <ele>272</ele>
        <time>2019-07-11T15:18:12Z</time>
      </trkpt>
      <trkpt lat="45.03172" lon="5.31569">
        <ele>273</ele>
        <time>2019-07-11T15:18:16Z</time>
      </trkpt>
      <trkpt lat="45.0318" lon="5.31602">
        <ele>277</ele>
        <time>2019-07-11T15:18:22Z</time>
      </trkpt>
      <trkpt lat="45.03205" lon="5.31627">
        <ele>281</ele>
        <time>2019-07-11T15:18:26Z</time>
      </trkpt>
      <trkpt lat="45.03222" lon="5.31652">
        <ele>282</ele>
        <time>2019-07-11T15:18:30Z</time>
      </trkpt>
      <trkpt lat="45.03221" lon="5.31681">
        <ele>283</ele>
        <time>2019-07-11T15:18:36Z</time>
      </trkpt>
      <trkpt lat="45.03194" lon="5.31708">
        <ele>286</ele>
        <time>2019-07-11T15:18:42Z</time>
      </trkpt>
      <trkpt lat="45.03158" lon="5.31714">
        <ele>285</ele>
        <time>2019-07-11T15:18:51Z</time>
      </trkpt>
      <trkpt lat="45.03111" lon="5.31729">
        <ele>284</ele>
        <time>2019-07-11T15:19:07Z</time>
      </trkpt>
      <trkpt lat="45.03048" lon="5.31827">
        <ele>290</ele>
        <time>2019-07-11T15:19:17Z</time>
      </trkpt>
      <trkpt lat="45.0301" lon="5.31876">
        <ele>290</ele>
        <time>2019-07-11T15:19:53Z</time>
      </trkpt>
      <trkpt lat="45.02854" lon="5.32065">
        <ele>301</ele>
        <time>2019-07-11T15:19:58Z</time>
      </trkpt>
      <trkpt lat="45.02832" lon="5.32087">
        <ele>303</ele>
        <time>2019-07-11T15:20:03Z</time>
      </trkpt>
      <trkpt lat="45.02817" lon="5.32117">
        <ele>304</ele>
        <time>2019-07-11T15:20:11Z</time>
      </trkpt>
      <trkpt lat="45.02799" lon="5.32183">
        <ele>308</ele>
        <time>2019-07-11T15:20:13Z</time>
      </trkpt>
      <trkpt lat="45.02791" lon="5.32185">
        <ele>309</ele>
        <time>2019-07-11T15:20:14Z</time>
      </trkpt>
      <trkpt lat="45.02785" lon="5.32194">
        <ele>309</ele>
        <time>2019-07-11T15:20:16Z</time>
      </trkpt>
      <trkpt lat="45.02784" lon="5.32203">
        <ele>309</ele>
        <time>2019-07-11T15:20:17Z</time>
      </trkpt>
      <trkpt lat="45.02786" lon="5.32211">
        <ele>309</ele>
        <time>2019-07-11T15:20:18Z</time>
      </trkpt>
      <trkpt lat="45.0279" lon="5.32217">
        <ele>310</ele>
        <time>2019-07-11T15:20:19Z</time>
      </trkpt>
      <trkpt lat="45.02796" lon="5.3222">
        <ele>310</ele>
        <time>2019-07-11T15:20:45Z</time>
      </trkpt>
      <trkpt lat="45.02772" lon="5.32429">
        <ele>313</ele>
        <time>2019-07-11T15:20:50Z</time>
      </trkpt>
      <trkpt lat="45.02776" lon="5.32469">
        <ele>313</ele>
        <time>2019-07-11T15:20:56Z</time>
      </trkpt>
      <trkpt lat="45.02786" lon="5.32513">
        <ele>313</ele>
        <time>2019-07-11T15:21:05Z</time>
      </trkpt>
      <trkpt lat="45.02806" lon="5.32579">
        <ele>313</ele>
        <time>2019-07-11T15:21:06Z</time>
      </trkpt>
      <trkpt lat="45.02805" lon="5.32588">
        <ele>313</ele>
        <time>2019-07-11T15:21:11Z</time>
      </trkpt>
      <trkpt lat="45.02798" lon="5.32619">
        <ele>314</ele>
        <time>2019-07-11T15:21:14Z</time>
      </trkpt>
      <trkpt lat="45.02808" lon="5.32641">
        <ele>314</ele>
        <time>2019-07-11T15:21:18Z</time>
      </trkpt>
      <trkpt lat="45.02823" lon="5.32662">
        <ele>313</ele>
        <time>2019-07-11T15:21:24Z</time>
      </trkpt>
      <trkpt lat="45.02849" lon="5.32695">
        <ele>313</ele>
        <time>2019-07-11T15:21:33Z</time>
      </trkpt>
      <trkpt lat="45.02892" lon="5.32742">
        <ele>312</ele>
        <time>2019-07-11T15:21:39Z</time>
      </trkpt>
      <trkpt lat="45.02914" lon="5.32778">
        <ele>311</ele>
        <time>2019-07-11T15:21:56Z</time>
      </trkpt>
      <trkpt lat="45.0297" lon="5.32885">
        <ele>310</ele>
        <time>2019-07-11T15:22:12Z</time>
      </trkpt>
      <trkpt lat="45.03019" lon="5.32992">
        <ele>308</ele>
        <time>2019-07-11T15:22:23Z</time>
      </trkpt>
      <trkpt lat="45.03048" lon="5.33065">
        <ele>308</ele>
        <time>2019-07-11T15:22:30Z</time>
      </trkpt>
      <trkpt lat="45.0307" lon="5.33113">
        <ele>308</ele>
        <time>2019-07-11T15:22:38Z</time>
      </trkpt>
      <trkpt lat="45.03103" lon="5.33156">
        <ele>307</ele>
        <time>2019-07-11T15:22:49Z</time>
      </trkpt>
      <trkpt lat="45.03163" lon="5.33189">
        <ele>304</ele>
        <time>2019-07-11T15:22:59Z</time>
      </trkpt>
      <trkpt lat="45.03216" lon="5.33209">
        <ele>303</ele>
        <time>2019-07-11T15:23:15Z</time>
      </trkpt>
      <trkpt lat="45.03302" lon="5.33216">
        <ele>300</ele>
        <time>2019-07-11T15:23:25Z</time>
      </trkpt>
      <trkpt lat="45.03361" lon="5.33214">
        <ele>299</ele>
        <time>2019-07-11T15:23:39Z</time>
      </trkpt>
      <trkpt lat="45.03439" lon="5.33206">
        <ele>297</ele>
        <time>2019-07-11T15:23:50Z</time>
      </trkpt>
      <trkpt lat="45.03499" lon="5.3321">
        <ele>295</ele>
        <time>2019-07-11T15:23:57Z</time>
      </trkpt>
      <trkpt lat="45.03541" lon="5.33216">
        <ele>295</ele>
        <time>2019-07-11T15:24:07Z</time>
      </trkpt>
      <trkpt lat="45.03596" lon="5.33233">
        <ele>294</ele>
        <time>2019-07-11T15:24:15Z</time>
      </trkpt>
      <trkpt lat="45.03638" lon="5.33261">
        <ele>294</ele>
        <time>2019-07-11T15:24:38Z</time>
      </trkpt>
      <trkpt lat="45.03739" lon="5.33366">
        <ele>291</ele>
        <time>2019-07-11T15:24:51Z</time>
      </trkpt>
      <trkpt lat="45.03795" lon="5.3343">
        <ele>290</ele>
        <time>2019-07-11T15:25:00Z</time>
      </trkpt>
      <trkpt lat="45.03831" lon="5.33485">
        <ele>291</ele>
        <time>2019-07-11T15:25:09Z</time>
      </trkpt>
      <trkpt lat="45.03853" lon="5.33552">
        <ele>290</ele>
        <time>2019-07-11T15:25:15Z</time>
      </trkpt>
      <trkpt lat="45.03867" lon="5.3359">
        <ele>289</ele>
        <time>2019-07-11T15:25:22Z</time>
      </trkpt>
      <trkpt lat="45.03897" lon="5.33631">
        <ele>289</ele>
        <time>2019-07-11T15:25:29Z</time>
      </trkpt>
      <trkpt lat="45.03927" lon="5.33669">
        <ele>289</ele>
        <time>2019-07-11T15:25:36Z</time>
      </trkpt>
      <trkpt lat="45.03963" lon="5.33688">
        <ele>288</ele>
        <time>2019-07-11T15:25:56Z</time>
      </trkpt>
      <trkpt lat="45.0407" lon="5.33724">
        <ele>289</ele>
        <time>2019-07-11T15:26:06Z</time>
      </trkpt>
      <trkpt lat="45.04129" lon="5.33739">
        <ele>290</ele>
        <time>2019-07-11T15:26:13Z</time>
      </trkpt>
      <trkpt lat="45.04166" lon="5.33753">
        <ele>290</ele>
        <time>2019-07-11T15:26:38Z</time>
      </trkpt>
      <trkpt lat="45.04295" lon="5.33833">
        <ele>291</ele>
        <time>2019-07-11T15:27:13Z</time>
      </trkpt>
      <trkpt lat="45.04483" lon="5.33905">
        <ele>294</ele>
        <time>2019-07-11T15:27:56Z</time>
      </trkpt>
      <trkpt lat="45.04707" lon="5.34043">
        <ele>298</ele>
        <time>2019-07-11T15:28:04Z</time>
      </trkpt>
      <trkpt lat="45.04745" lon="5.34076">
        <ele>297</ele>
        <time>2019-07-11T15:28:07Z</time>
      </trkpt>
      <trkpt lat="45.04756" lon="5.34088">
        <ele>297</ele>
        <time>2019-07-11T15:28:12Z</time>
      </trkpt>
      <trkpt lat="45.04784" lon="5.34105">
        <ele>294</ele>
        <time>2019-07-11T15:28:15Z</time>
      </trkpt>
      <trkpt lat="45.04801" lon="5.34104">
        <ele>292</ele>
        <time>2019-07-11T15:28:17Z</time>
      </trkpt>
      <trkpt lat="45.04811" lon="5.34098">
        <ele>291</ele>
        <time>2019-07-11T15:28:36Z</time>
      </trkpt>
      <trkpt lat="45.04894" lon="5.34004">
        <ele>288</ele>
        <time>2019-07-11T15:28:39Z</time>
      </trkpt>
      <trkpt lat="45.04907" lon="5.33994">
        <ele>287</ele>
        <time>2019-07-11T15:28:41Z</time>
      </trkpt>
      <trkpt lat="45.04919" lon="5.33989">
        <ele>286</ele>
        <time>2019-07-11T15:28:47Z</time>
      </trkpt>
      <trkpt lat="45.04952" lon="5.33992">
        <ele>282</ele>
        <time>2019-07-11T15:28:50Z</time>
      </trkpt>
      <trkpt lat="45.04969" lon="5.33999">
        <ele>280</ele>
        <time>2019-07-11T15:28:54Z</time>
      </trkpt>
      <trkpt lat="45.04988" lon="5.34017">
        <ele>278</ele>
        <time>2019-07-11T15:29:23Z</time>
      </trkpt>
      <trkpt lat="45.05104" lon="5.34175">
        <ele>272</ele>
        <time>2019-07-11T15:29:41Z</time>
      </trkpt>
      <trkpt lat="45.05179" lon="5.34273">
        <ele>261</ele>
        <time>2019-07-11T15:29:44Z</time>
      </trkpt>
      <trkpt lat="45.05192" lon="5.34286">
        <ele>258</ele>
        <time>2019-07-11T15:29:48Z</time>
      </trkpt>
      <trkpt lat="45.05214" lon="5.34299">
        <ele>256</ele>
        <time>2019-07-11T15:29:53Z</time>
      </trkpt>
      <trkpt lat="45.05241" lon="5.34302">
        <ele>256</ele>
        <time>2019-07-11T15:29:56Z</time>
      </trkpt>
      <trkpt lat="45.05261" lon="5.34299">
        <ele>256</ele>
        <time>2019-07-11T15:30:01Z</time>
      </trkpt>
      <trkpt lat="45.05285" lon="5.34287">
        <ele>255</ele>
        <time>2019-07-11T15:30:15Z</time>
      </trkpt>
      <trkpt lat="45.05356" lon="5.34242">
        <ele>252</ele>
        <time>2019-07-11T15:30:19Z</time>
      </trkpt>
      <trkpt lat="45.05381" lon="5.34231">
        <ele>253</ele>
        <time>2019-07-11T15:30:24Z</time>
      </trkpt>
      <trkpt lat="45.05405" lon="5.34226">
        <ele>252</ele>
        <time>2019-07-11T15:30:43Z</time>
      </trkpt>
      <trkpt lat="45.05515" lon="5.34233">
        <ele>242</ele>
        <time>2019-07-11T15:30:48Z</time>
      </trkpt>
      <trkpt lat="45.05543" lon="5.34232">
        <ele>238</ele>
        <time>2019-07-11T15:30:52Z</time>
      </trkpt>
      <trkpt lat="45.05563" lon="5.34228">
        <ele>236</ele>
        <time>2019-07-11T15:30:59Z</time>
      </trkpt>
      <trkpt lat="45.05599" lon="5.34207">
        <ele>234</ele>
        <time>2019-07-11T15:31:02Z</time>
      </trkpt>
      <trkpt lat="45.05615" lon="5.34189">
        <ele>234</ele>
        <time>2019-07-11T15:31:08Z</time>
      </trkpt>
      <trkpt lat="45.05638" lon="5.34157">
        <ele>234</ele>
        <time>2019-07-11T15:31:17Z</time>
      </trkpt>
      <trkpt lat="45.05671" lon="5.34102">
        <ele>240</ele>
        <time>2019-07-11T15:31:27Z</time>
      </trkpt>
      <trkpt lat="45.05712" lon="5.34048">
        <ele>245</ele>
        <time>2019-07-11T15:31:29Z</time>
      </trkpt>
      <trkpt lat="45.05723" lon="5.34039">
        <ele>246</ele>
        <time>2019-07-11T15:31:31Z</time>
      </trkpt>
      <trkpt lat="45.0573" lon="5.3404">
        <ele>245</ele>
        <time>2019-07-11T15:31:32Z</time>
      </trkpt>
      <trkpt lat="45.05734" lon="5.34049">
        <ele>241</ele>
        <time>2019-07-11T15:31:34Z</time>
      </trkpt>
      <trkpt lat="45.0573" lon="5.34061">
        <ele>238</ele>
        <time>2019-07-11T15:31:40Z</time>
      </trkpt>
      <trkpt lat="45.057" lon="5.34092">
        <ele>236</ele>
        <time>2019-07-11T15:31:44Z</time>
      </trkpt>
      <trkpt lat="45.05683" lon="5.34112">
        <ele>235</ele>
        <time>2019-07-11T15:31:49Z</time>
      </trkpt>
      <trkpt lat="45.05667" lon="5.34143">
        <ele>231</ele>
        <time>2019-07-11T15:31:57Z</time>
      </trkpt>
      <trkpt lat="45.05651" lon="5.34202">
        <ele>223</ele>
        <time>2019-07-11T15:32:01Z</time>
      </trkpt>
      <trkpt lat="45.05638" lon="5.34229">
        <ele>222</ele>
        <time>2019-07-11T15:32:04Z</time>
      </trkpt>
      <trkpt lat="45.05625" lon="5.34245">
        <ele>222</ele>
        <time>2019-07-11T15:32:08Z</time>
      </trkpt>
      <trkpt lat="45.05604" lon="5.34259">
        <ele>225</ele>
        <time>2019-07-11T15:32:13Z</time>
      </trkpt>
      <trkpt lat="45.05577" lon="5.3427">
        <ele>228</ele>
        <time>2019-07-11T15:32:16Z</time>
      </trkpt>
      <trkpt lat="45.05563" lon="5.34279">
        <ele>229</ele>
        <time>2019-07-11T15:32:18Z</time>
      </trkpt>
      <trkpt lat="45.05555" lon="5.34293">
        <ele>228</ele>
        <time>2019-07-11T15:32:21Z</time>
      </trkpt>
      <trkpt lat="45.05552" lon="5.34313">
        <ele>225</ele>
        <time>2019-07-11T15:32:23Z</time>
      </trkpt>
      <trkpt lat="45.05559" lon="5.34329">
        <ele>222</ele>
        <time>2019-07-11T15:32:25Z</time>
      </trkpt>
      <trkpt lat="45.05566" lon="5.34336">
        <ele>221</ele>
        <time>2019-07-11T15:32:39Z</time>
      </trkpt>
      <trkpt lat="45.05639" lon="5.34391">
        <ele>230</ele>
        <time>2019-07-11T15:32:42Z</time>
      </trkpt>
      <trkpt lat="45.05655" lon="5.34398">
        <ele>231</ele>
        <time>2019-07-11T15:32:45Z</time>
      </trkpt>
      <trkpt lat="45.05671" lon="5.34395">
        <ele>230</ele>
        <time>2019-07-11T15:32:50Z</time>
      </trkpt>
      <trkpt lat="45.05695" lon="5.3438">
        <ele>227</ele>
        <time>2019-07-11T15:32:55Z</time>
      </trkpt>
      <trkpt lat="45.05725" lon="5.34371">
        <ele>225</ele>
        <time>2019-07-11T15:33:01Z</time>
      </trkpt>
      <trkpt lat="45.05755" lon="5.34356">
        <ele>219</ele>
        <time>2019-07-11T15:33:03Z</time>
      </trkpt>
      <trkpt lat="45.05765" lon="5.34355">
        <ele>218</ele>
        <time>2019-07-11T15:33:05Z</time>
      </trkpt>
      <trkpt lat="45.05775" lon="5.34357">
        <ele>217</ele>
        <time>2019-07-11T15:33:07Z</time>
      </trkpt>
      <trkpt lat="45.05789" lon="5.34366">
        <ele>218</ele>
        <time>2019-07-11T15:33:10Z</time>
      </trkpt>
      <trkpt lat="45.05801" lon="5.34377">
        <ele>220</ele>
        <time>2019-07-11T15:33:13Z</time>
      </trkpt>
      <trkpt lat="45.05817" lon="5.34389">
        <ele>221</ele>
        <time>2019-07-11T15:33:21Z</time>
      </trkpt>
      <trkpt lat="45.05859" lon="5.34404">
        <ele>220</ele>
        <time>2019-07-11T15:33:27Z</time>
      </trkpt>
      <trkpt lat="45.05892" lon="5.3442">
        <ele>221</ele>
        <time>2019-07-11T15:33:36Z</time>
      </trkpt>
      <trkpt lat="45.05944" lon="5.34418">
        <ele>213</ele>
        <time>2019-07-11T15:33:43Z</time>
      </trkpt>
      <trkpt lat="45.0598" lon="5.3444">
        <ele>213</ele>
        <time>2019-07-11T15:33:44Z</time>
      </trkpt>
      <trkpt lat="45.05982" lon="5.34444">
        <ele>214</ele>
        <time>2019-07-11T15:33:50Z</time>
      </trkpt>
      <trkpt lat="45.05994" lon="5.34489">
        <ele>219</ele>
        <time>2019-07-11T15:33:57Z</time>
      </trkpt>
      <trkpt lat="45.05995" lon="5.34545">
        <ele>229</ele>
        <time>2019-07-11T15:34:00Z</time>
      </trkpt>
      <trkpt lat="45.05997" lon="5.34568">
        <ele>231</ele>
        <time>2019-07-11T15:34:01Z</time>
      </trkpt>
      <trkpt lat="45.05999" lon="5.34581">
        <ele>232</ele>
        <time>2019-07-11T15:34:06Z</time>
      </trkpt>
      <trkpt lat="45.06009" lon="5.34617">
        <ele>237</ele>
        <time>2019-07-11T15:34:13Z</time>
      </trkpt>
      <trkpt lat="45.06028" lon="5.34658">
        <ele>243</ele>
        <time>2019-07-11T15:34:15Z</time>
      </trkpt>
      <trkpt lat="45.06089" lon="5.34807">
        <ele>290.4</ele>
        <time>2019-07-11T15:32:18Z</time>
      </trkpt>
      <trkpt lat="45.06213" lon="5.34907">
        <ele>317.9</ele>
        <time>2019-07-11T15:32:21Z</time>
      </trkpt>
      <trkpt lat="45.06383" lon="5.35007">
        <ele>445.6</ele>
        <time>2019-07-11T15:32:23Z</time>
      </trkpt>
      <trkpt lat="45.06425" lon="5.35119">
        <ele>362.9</ele>
        <time>2019-07-11T15:32:29Z</time>
      </trkpt>
      <trkpt lat="45.0649" lon="5.35355">
        <ele>250.3</ele>
        <time>2019-07-11T15:32:31Z</time>
      </trkpt>
      <trkpt lat="45.06542" lon="5.35443">
        <ele>243.6</ele>
        <time>2019-07-11T15:32:34Z</time>
      </trkpt>
      <trkpt lat="45.06505" lon="5.35683">
        <ele>246.6</ele>
        <time>2019-07-11T15:32:43Z</time>
      </trkpt>
      <trkpt lat="45.06526" lon="5.35756">
        <ele>242.7</ele>
        <time>2019-07-11T15:32:47Z</time>
      </trkpt>
      <trkpt lat="45.06615" lon="5.35789">
        <ele>254.2</ele>
        <time>2019-07-11T15:32:56Z</time>
      </trkpt>
      <trkpt lat="45.06631" lon="5.3584">
        <ele>246.1</ele>
        <time>2019-07-11T15:32:59Z</time>
      </trkpt>
      <trkpt lat="45.0666" lon="5.35968">
        <ele>242.9</ele>
        <time>2019-07-11T15:33:11Z</time>
      </trkpt>
      <trkpt lat="45.06655" lon="5.36055">
        <ele>242.7</ele>
        <time>2019-07-11T15:33:14Z</time>
      </trkpt>
      <trkpt lat="45.06608" lon="5.36341">
        <ele>249.4</ele>
        <time>2019-07-11T15:33:17Z</time>
      </trkpt>
      <trkpt lat="45.06605" lon="5.36383">
        <ele>249.9</ele>
        <time>2019-07-11T15:33:28Z</time>
      </trkpt>
      <trkpt lat="45.06636" lon="5.36543">
        <ele>242.2</ele>
        <time>2019-07-11T15:33:30Z</time>
      </trkpt>
      <trkpt lat="45.06686" lon="5.3657">
        <ele>253.1</ele>
        <time>2019-07-11T15:33:34Z</time>
      </trkpt>
      <trkpt lat="45.06718" lon="5.36649">
        <ele>255.7</ele>
        <time>2019-07-11T15:33:36Z</time>
      </trkpt>
      <trkpt lat="45.06721" lon="5.3673">
        <ele>253.6</ele>
        <time>2019-07-11T15:33:42Z</time>
      </trkpt>
      <trkpt lat="45.067" lon="5.36819">
        <ele>250.8</ele>
        <time>2019-07-11T15:33:44Z</time>
      </trkpt>
      <trkpt lat="45.06659" lon="5.36875">
        <ele>242.4</ele>
        <time>2019-07-11T15:33:46Z</time>
      </trkpt>
      <trkpt lat="45.06547" lon="5.37075">
        <ele>244</ele>
        <time>2019-07-11T15:33:49Z</time>
      </trkpt>
      <trkpt lat="45.06472" lon="5.37161">
        <ele>242.2</ele>
        <time>2019-07-11T15:33:51Z</time>
      </trkpt>
      <trkpt lat="45.06486" lon="5.37238">
        <ele>242.9</ele>
        <time>2019-07-11T15:33:53Z</time>
      </trkpt>
      <trkpt lat="45.06525" lon="5.37277">
        <ele>245.9</ele>
        <time>2019-07-11T15:33:58Z</time>
      </trkpt>
      <trkpt lat="45.06678" lon="5.37329">
        <ele>273.8</ele>
        <time>2019-07-11T15:34:15Z</time>
      </trkpt>
      <trkpt lat="45.06695" lon="5.37366">
        <ele>266.5</ele>
        <time>2019-07-11T15:34:19Z</time>
      </trkpt>
      <trkpt lat="45.06713" lon="5.3746">
        <ele>259.9</ele>
        <time>2019-07-11T15:34:21Z</time>
      </trkpt>
      <trkpt lat="45.06707" lon="5.37595">
        <ele>261.8</ele>
        <time>2019-07-11T15:34:27Z</time>
      </trkpt>
      <trkpt lat="45.06725" lon="5.37726">
        <ele>266.1</ele>
        <time>2019-07-11T15:34:30Z</time>
      </trkpt>
      <trkpt lat="45.06716" lon="5.37827">
        <ele>266.4</ele>
        <time>2019-07-11T15:34:33Z</time>
      </trkpt>
      <trkpt lat="45.0674" lon="5.38049">
        <ele>271.7</ele>
        <time>2019-07-11T15:34:37Z</time>
      </trkpt>
      <trkpt lat="45.06777" lon="5.38177">
        <ele>277.3</ele>
        <time>2019-07-11T15:34:42Z</time>
      </trkpt>
      <trkpt lat="45.0678" lon="5.3831">
        <ele>279</ele>
        <time>2019-07-11T15:34:52Z</time>
      </trkpt>
      <trkpt lat="45.06812" lon="5.38468">
        <ele>283.1</ele>
        <time>2019-07-11T15:34:59Z</time>
      </trkpt>
      <trkpt lat="45.06745" lon="5.38739">
        <ele>272.3</ele>
        <time>2019-07-11T15:35:02Z</time>
      </trkpt>
      <trkpt lat="45.06742" lon="5.38851">
        <ele>281.8</ele>
        <time>2019-07-11T15:35:09Z</time>
      </trkpt>
      <trkpt lat="45.06649" lon="5.38899">
        <ele>275.1</ele>
        <time>2019-07-11T15:35:15Z</time>
      </trkpt>
      <trkpt lat="45.0664" lon="5.38995">
        <ele>275.7</ele>
        <time>2019-07-11T15:35:20Z</time>
      </trkpt>
      <trkpt lat="45.06688" lon="5.39167">
        <ele>283.4</ele>
        <time>2019-07-11T15:35:42Z</time>
      </trkpt>
      <trkpt lat="45.06637" lon="5.39271">
        <ele>281.1</ele>
        <time>2019-07-11T15:35:48Z</time>
      </trkpt>
      <trkpt lat="45.06536" lon="5.39467">
        <ele>288.2</ele>
        <time>2019-07-11T15:36:01Z</time>
      </trkpt>
      <trkpt lat="45.06544" lon="5.39643">
        <ele>305</ele>
        <time>2019-07-11T15:36:05Z</time>
      </trkpt>
      <trkpt lat="45.06417" lon="5.39892">
        <ele>318.7</ele>
        <time>2019-07-11T15:36:12Z</time>
      </trkpt>
      <trkpt lat="45.06264" lon="5.40036">
        <ele>321.4</ele>
        <time>2019-07-11T15:36:16Z</time>
      </trkpt>
      <trkpt lat="45.06227" lon="5.402">
        <ele>324.6</ele>
        <time>2019-07-11T15:36:38Z</time>
      </trkpt>
      <trkpt lat="45.0623" lon="5.4026">
        <ele>337</ele>
        <time>2019-07-11T15:36:41Z</time>
      </trkpt>
      <trkpt lat="45.06154" lon="5.4046">
        <ele>329.7</ele>
        <time>2019-07-11T15:36:47Z</time>
      </trkpt>
      <trkpt lat="45.06171" lon="5.40556">
        <ele>364.4</ele>
        <time>2019-07-11T15:36:57Z</time>
      </trkpt>
      <trkpt lat="45.06128" lon="5.40653">
        <ele>361.5</ele>
        <time>2019-07-11T15:37:02Z</time>
      </trkpt>
      <trkpt lat="45.06075" lon="5.40653">
        <ele>342.1</ele>
        <time>2019-07-11T15:37:11Z</time>
      </trkpt>
      <trkpt lat="45.06015" lon="5.40733">
        <ele>353.9</ele>
        <time>2019-07-11T15:37:14Z</time>
      </trkpt>
      <trkpt lat="45.05899" lon="5.40853">
        <ele>340.2</ele>
        <time>2019-07-11T15:37:24Z</time>
      </trkpt>
      <trkpt lat="45.05899" lon="5.40925">
        <ele>365.2</ele>
        <time>2019-07-11T15:37:27Z</time>
      </trkpt>
      <trkpt lat="45.05851" lon="5.40993">
        <ele>358.2</ele>
        <time>2019-07-11T15:37:29Z</time>
      </trkpt>
      <trkpt lat="45.05916" lon="5.41117">
        <ele>363.7</ele>
        <time>2019-07-11T15:37:30Z</time>
      </trkpt>
      <trkpt lat="45.05967" lon="5.41129">
        <ele>385.5</ele>
        <time>2019-07-11T15:37:37Z</time>
      </trkpt>
      <trkpt lat="45.0599" lon="5.41277">
        <ele>377.5</ele>
        <time>2019-07-11T15:37:38Z</time>
      </trkpt>
      <trkpt lat="45.06027" lon="5.41389">
        <ele>396.5</ele>
        <time>2019-07-11T15:37:40Z</time>
      </trkpt>
      <trkpt lat="45.06027" lon="5.41477">
        <ele>383.2</ele>
        <time>2019-07-11T15:37:44Z</time>
      </trkpt>
      <trkpt lat="45.06072" lon="5.41507">
        <ele>394.7</ele>
        <time>2019-07-11T15:37:50Z</time>
      </trkpt>
      <trkpt lat="45.06081" lon="5.41532">
        <ele>390.5</ele>
        <time>2019-07-11T15:37:55Z</time>
      </trkpt>
      <trkpt lat="45.06074" lon="5.41623">
        <ele>389.6</ele>
        <time>2019-07-11T15:38:03Z</time>
      </trkpt>
      <trkpt lat="45.06107" lon="5.41746">
        <ele>414.3</ele>
        <time>2019-07-11T15:38:12Z</time>
      </trkpt>
      <trkpt lat="45.06117" lon="5.41835">
        <ele>410.2</ele>
        <time>2019-07-11T15:38:16Z</time>
      </trkpt>
      <trkpt lat="45.06149" lon="5.41909">
        <ele>418</ele>
        <time>2019-07-11T15:38:22Z</time>
      </trkpt>
      <trkpt lat="45.06298" lon="5.42094">
        <ele>432.2</ele>
        <time>2019-07-11T15:38:26Z</time>
      </trkpt>
      <trkpt lat="45.06309" lon="5.4215">
        <ele>433.3</ele>
        <time>2019-07-11T15:38:30Z</time>
      </trkpt>
      <trkpt lat="45.06373" lon="5.4267">
        <ele>444.7</ele>
        <time>2019-07-11T15:38:38Z</time>
      </trkpt>
      <trkpt lat="45.06429" lon="5.42722">
        <ele>524.7</ele>
        <time>2019-07-11T15:38:42Z</time>
      </trkpt>
      <trkpt lat="45.06486" lon="5.42742">
        <ele>542.5</ele>
        <time>2019-07-11T15:38:49Z</time>
      </trkpt>
      <trkpt lat="45.06519" lon="5.42803">
        <ele>571.7</ele>
        <time>2019-07-11T15:38:53Z</time>
      </trkpt>
      <trkpt lat="45.06537" lon="5.42865">
        <ele>573.8</ele>
        <time>2019-07-11T15:39:01Z</time>
      </trkpt>
      <trkpt lat="45.06579" lon="5.42922">
        <ele>580.1</ele>
        <time>2019-07-11T15:39:07Z</time>
      </trkpt>
      <trkpt lat="45.06678" lon="5.43013">
        <ele>578.8</ele>
        <time>2019-07-11T15:39:16Z</time>
      </trkpt>
      <trkpt lat="45.06692" lon="5.43077">
        <ele>578.3</ele>
        <time>2019-07-11T15:39:27Z</time>
      </trkpt>
      <trkpt lat="45.0674" lon="5.43121">
        <ele>577.7</ele>
        <time>2019-07-11T15:39:38Z</time>
      </trkpt>
      <trkpt lat="45.06826" lon="5.43336">
        <ele>583.9</ele>
        <time>2019-07-11T15:39:43Z</time>
      </trkpt>
      <trkpt lat="45.06826" lon="5.43466">
        <ele>641.6</ele>
        <time>2019-07-11T15:39:47Z</time>
      </trkpt>
      <trkpt lat="45.06847" lon="5.43577">
        <ele>897.4</ele>
        <time>2019-07-11T15:39:49Z</time>
      </trkpt>
      <trkpt lat="45.06883" lon="5.43669">
        <ele>1001.1</ele>
        <time>2019-07-11T15:40:03Z</time>
      </trkpt>
      <trkpt lat="45.06951" lon="5.43834">
        <ele>937.4</ele>
        <time>2019-07-11T15:40:07Z</time>
      </trkpt>
      <trkpt lat="45.06979" lon="5.43932">
        <ele>906.6</ele>
        <time>2019-07-11T15:40:13Z</time>
      </trkpt>
      <trkpt lat="45.07075" lon="5.44063">
        <ele>871.8</ele>
        <time>2019-07-11T15:40:18Z</time>
      </trkpt>
      <trkpt lat="45.07104" lon="5.44157">
        <ele>848.3</ele>
        <time>2019-07-11T15:40:20Z</time>
      </trkpt>
      <trkpt lat="45.0713" lon="5.44282">
        <ele>820</ele>
        <time>2019-07-11T15:40:22Z</time>
      </trkpt>
      <trkpt lat="45.07162" lon="5.44344">
        <ele>821.5</ele>
        <time>2019-07-11T15:40:24Z</time>
      </trkpt>
      <trkpt lat="45.07158" lon="5.4441">
        <ele>822</ele>
        <time>2019-07-11T15:40:26Z</time>
      </trkpt>
      <trkpt lat="45.07237" lon="5.44492">
        <ele>820</ele>
        <time>2019-07-11T15:40:33Z</time>
      </trkpt>
      <trkpt lat="45.07245" lon="5.44553">
        <ele>802.2</ele>
        <time>2019-07-11T15:40:40Z</time>
      </trkpt>
      <trkpt lat="45.07273" lon="5.44637">
        <ele>740</ele>
        <time>2019-07-11T15:40:51Z</time>
      </trkpt>
      <trkpt lat="45.0728" lon="5.44691">
        <ele>695.8</ele>
        <time>2019-07-11T15:40:54Z</time>
      </trkpt>
      <trkpt lat="45.07331" lon="5.44733">
        <ele>673.7</ele>
        <time>2019-07-11T15:40:58Z</time>
      </trkpt>
      <trkpt lat="45.07397" lon="5.44758">
        <ele>638</ele>
        <time>2019-07-11T15:41:01Z</time>
      </trkpt>
      <trkpt lat="45.07423" lon="5.44785">
        <ele>638.7</ele>
        <time>2019-07-11T15:41:05Z</time>
      </trkpt>
      <trkpt lat="45.0744" lon="5.44852">
        <ele>581.8</ele>
        <time>2019-07-11T15:41:10Z</time>
      </trkpt>
      <trkpt lat="45.07574" lon="5.44948">
        <ele>598.2</ele>
        <time>2019-07-11T15:41:13Z</time>
      </trkpt>
      <trkpt lat="45.07726" lon="5.45078">
        <ele>662.9</ele>
        <time>2019-07-11T15:41:16Z</time>
      </trkpt>
      <trkpt lat="45.07773" lon="5.45142">
        <ele>708.2</ele>
        <time>2019-07-11T15:41:21Z</time>
      </trkpt>
      <trkpt lat="45.07774" lon="5.45226">
        <ele>708</ele>
        <time>2019-07-11T15:41:29Z</time>
      </trkpt>
      <trkpt lat="45.07776" lon="5.45303">
        <ele>685.7</ele>
        <time>2019-07-11T15:41:35Z</time>
      </trkpt>
      <trkpt lat="45.07788" lon="5.45352">
        <ele>659.5</ele>
        <time>2019-07-11T15:41:43Z</time>
      </trkpt>
      <trkpt lat="45.07872" lon="5.45431">
        <ele>643.7</ele>
        <time>2019-07-11T15:41:49Z</time>
      </trkpt>
      <trkpt lat="45.07971" lon="5.45512">
        <ele>659.1</ele>
        <time>2019-07-11T15:41:57Z</time>
      </trkpt>
      <trkpt lat="45.08035" lon="5.45552">
        <ele>668.8</ele>
        <time>2019-07-11T15:42:08Z</time>
      </trkpt>
      <trkpt lat="45.08053" lon="5.45608">
        <ele>671.6</ele>
        <time>2019-07-11T15:42:12Z</time>
      </trkpt>
      <trkpt lat="45.08187" lon="5.4569">
        <ele>675.7</ele>
        <time>2019-07-11T15:42:19Z</time>
      </trkpt>
      <trkpt lat="45.08197" lon="5.45741">
        <ele>665.1</ele>
        <time>2019-07-11T15:42:25Z</time>
      </trkpt>
      <trkpt lat="45.0823" lon="5.45769">
        <ele>680.7</ele>
        <time>2019-07-11T15:42:35Z</time>
      </trkpt>
      <trkpt lat="45.08265" lon="5.45771">
        <ele>671.9</ele>
        <time>2019-07-11T15:42:45Z</time>
      </trkpt>
      <trkpt lat="45.08316" lon="5.45744">
        <ele>692.1</ele>
        <time>2019-07-11T15:42:49Z</time>
      </trkpt>
      <trkpt lat="45.08337" lon="5.45788">
        <ele>676.8</ele>
        <time>2019-07-11T15:42:55Z</time>
      </trkpt>
      <trkpt lat="45.08406" lon="5.45845">
        <ele>675.1</ele>
        <time>2019-07-11T15:43:00Z</time>
      </trkpt>
      <trkpt lat="45.08504" lon="5.45958">
        <ele>691.3</ele>
        <time>2019-07-11T15:43:02Z</time>
      </trkpt>
      <trkpt lat="45.08624" lon="5.4605">
        <ele>672.1</ele>
        <time>2019-07-11T15:43:06Z</time>
      </trkpt>
      <trkpt lat="45.08653" lon="5.46099">
        <ele>670.5</ele>
        <time>2019-07-11T15:43:11Z</time>
      </trkpt>
      <trkpt lat="45.08683" lon="5.46165">
        <ele>681</ele>
        <time>2019-07-11T15:43:15Z</time>
      </trkpt>
      <trkpt lat="45.08676" lon="5.46244">
        <ele>675.2</ele>
        <time>2019-07-11T15:43:26Z</time>
      </trkpt>
      <trkpt lat="45.08709" lon="5.46348">
        <ele>689.3</ele>
        <time>2019-07-11T15:43:30Z</time>
      </trkpt>
      <trkpt lat="45.08735" lon="5.46439">
        <ele>685.1</ele>
        <time>2019-07-11T15:43:33Z</time>
      </trkpt>
      <trkpt lat="45.08723" lon="5.46552">
        <ele>677.2</ele>
        <time>2019-07-11T15:43:42Z</time>
      </trkpt>
      <trkpt lat="45.08761" lon="5.46653">
        <ele>667.9</ele>
        <time>2019-07-11T15:43:49Z</time>
      </trkpt>
      <trkpt lat="45.08803" lon="5.4674">
        <ele>662.9</ele>
        <time>2019-07-11T15:43:52Z</time>
      </trkpt>
      <trkpt lat="45.08836" lon="5.46836">
        <ele>662.5</ele>
        <time>2019-07-11T15:44:04Z</time>
      </trkpt>
      <trkpt lat="45.08867" lon="5.46853">
        <ele>665.8</ele>
        <time>2019-07-11T15:44:14Z</time>
      </trkpt>
      <trkpt lat="45.08944" lon="5.4691">
        <ele>673.8</ele>
        <time>2019-07-11T15:44:22Z</time>
      </trkpt>
      <trkpt lat="45.08975" lon="5.46966">
        <ele>663.6</ele>
        <time>2019-07-11T15:44:29Z</time>
      </trkpt>
      <trkpt lat="45.08968" lon="5.47048">
        <ele>659.5</ele>
        <time>2019-07-11T15:44:32Z</time>
      </trkpt>
      <trkpt lat="45.08958" lon="5.47077">
        <ele>659.5</ele>
        <time>2019-07-11T15:44:36Z</time>
      </trkpt>
      <trkpt lat="45.08947" lon="5.47104">
        <ele>664.7</ele>
        <time>2019-07-11T15:44:40Z</time>
      </trkpt>
      <trkpt lat="45.08856" lon="5.47246">
        <ele>665</ele>
        <time>2019-07-11T15:44:45Z</time>
      </trkpt>
      <trkpt lat="45.08777" lon="5.47373">
        <ele>667.4</ele>
        <time>2019-07-11T15:44:48Z</time>
      </trkpt>
      <trkpt lat="45.08755" lon="5.47446">
        <ele>675.9</ele>
        <time>2019-07-11T15:44:52Z</time>
      </trkpt>
      <trkpt lat="45.08728" lon="5.47507">
        <ele>674</ele>
        <time>2019-07-11T15:44:57Z</time>
      </trkpt>
      <trkpt lat="45.08624" lon="5.4772">
        <ele>674.5</ele>
        <time>2019-07-11T15:45:04Z</time>
      </trkpt>
      <trkpt lat="45.08622" lon="5.47727">
        <ele>675</ele>
        <time>2019-07-11T15:45:13Z</time>
      </trkpt>
      <trkpt lat="45.08588" lon="5.47788">
        <ele>671</ele>
        <time>2019-07-11T15:45:21Z</time>
      </trkpt>
      <trkpt lat="45.08581" lon="5.47804">
        <ele>671</ele>
        <time>2019-07-11T15:45:25Z</time>
      </trkpt>
      <trkpt lat="45.08576" lon="5.47823">
        <ele>673</ele>
        <time>2019-07-11T15:45:31Z</time>
      </trkpt>
      <trkpt lat="45.08574" lon="5.47866">
        <ele>680</ele>
        <time>2019-07-11T15:45:50Z</time>
      </trkpt>
      <trkpt lat="45.0857" lon="5.47887">
        <ele>683</ele>
        <time>2019-07-11T15:45:52Z</time>
      </trkpt>
      <trkpt lat="45.08562" lon="5.47909">
        <ele>685</ele>
        <time>2019-07-11T15:45:55Z</time>
      </trkpt>
      <trkpt lat="45.08532" lon="5.47964">
        <ele>687</ele>
        <time>2019-07-11T15:46:02Z</time>
      </trkpt>
      <trkpt lat="45.08524" lon="5.47988">
        <ele>687</ele>
        <time>2019-07-11T15:46:06Z</time>
      </trkpt>
      <trkpt lat="45.08508" lon="5.48058">
        <ele>691</ele>
        <time>2019-07-11T15:46:12Z</time>
      </trkpt>
      <trkpt lat="45.08498" lon="5.48079">
        <ele>686</ele>
        <time>2019-07-11T15:46:21Z</time>
      </trkpt>
      <trkpt lat="45.08451" lon="5.4815">
        <ele>690</ele>
        <time>2019-07-11T15:46:26Z</time>
      </trkpt>
      <trkpt lat="45.0844" lon="5.48169">
        <ele>685</ele>
        <time>2019-07-11T15:46:34Z</time>
      </trkpt>
      <trkpt lat="45.0843" lon="5.48189">
        <ele>684</ele>
        <time>2019-07-11T15:46:39Z</time>
      </trkpt>
      <trkpt lat="45.08413" lon="5.48267">
        <ele>689</ele>
        <time>2019-07-11T15:46:42Z</time>
      </trkpt>
      <trkpt lat="45.08413" lon="5.48283">
        <ele>690</ele>
        <time>2019-07-11T15:46:44Z</time>
      </trkpt>
      <trkpt lat="45.08418" lon="5.48318">
        <ele>693</ele>
        <time>2019-07-11T15:46:46Z</time>
      </trkpt>
      <trkpt lat="45.08417" lon="5.48333">
        <ele>693</ele>
        <time>2019-07-11T15:46:50Z</time>
      </trkpt>
      <trkpt lat="45.08403" lon="5.48377">
        <ele>685</ele>
        <time>2019-07-11T15:46:54Z</time>
      </trkpt>
      <trkpt lat="45.08401" lon="5.48392">
        <ele>683</ele>
        <time>2019-07-11T15:46:57Z</time>
      </trkpt>
      <trkpt lat="45.08402" lon="5.48407">
        <ele>681</ele>
        <time>2019-07-11T15:47:05Z</time>
      </trkpt>
      <trkpt lat="45.08399" lon="5.48433">
        <ele>681</ele>
        <time>2019-07-11T15:47:16Z</time>
      </trkpt>
      <trkpt lat="45.08393" lon="5.48447">
        <ele>682</ele>
        <time>2019-07-11T15:47:19Z</time>
      </trkpt>
      <trkpt lat="45.08385" lon="5.48457">
        <ele>683</ele>
        <time>2019-07-11T15:47:28Z</time>
      </trkpt>
      <trkpt lat="45.08357" lon="5.48471">
        <ele>682</ele>
        <time>2019-07-11T15:47:29Z</time>
      </trkpt>
      <trkpt lat="45.08266" lon="5.48492">
        <ele>678</ele>
        <time>2019-07-11T15:47:40Z</time>
      </trkpt>
      <trkpt lat="45.08245" lon="5.48503">
        <ele>677</ele>
        <time>2019-07-11T15:47:51Z</time>
      </trkpt>
      <trkpt lat="45.08235" lon="5.48511">
        <ele>678</ele>
        <time>2019-07-11T15:47:53Z</time>
      </trkpt>
      <trkpt lat="45.08211" lon="5.48542">
        <ele>679</ele>
        <time>2019-07-11T15:47:55Z</time>
      </trkpt>
      <trkpt lat="45.08198" lon="5.48563">
        <ele>679</ele>
        <time>2019-07-11T15:48:00Z</time>
      </trkpt>
      <trkpt lat="45.08192" lon="5.48581">
        <ele>680</ele>
        <time>2019-07-11T15:48:03Z</time>
      </trkpt>
      <trkpt lat="45.08189" lon="5.48617">
        <ele>681</ele>
        <time>2019-07-11T15:48:06Z</time>
      </trkpt>
      <trkpt lat="45.0819" lon="5.48656">
        <ele>683</ele>
        <time>2019-07-11T15:48:08Z</time>
      </trkpt>
      <trkpt lat="45.08183" lon="5.48732">
        <ele>688</ele>
        <time>2019-07-11T15:48:10Z</time>
      </trkpt>
      <trkpt lat="45.08176" lon="5.4879">
        <ele>693</ele>
        <time>2019-07-11T15:48:13Z</time>
      </trkpt>
      <trkpt lat="45.08167" lon="5.48813">
        <ele>694</ele>
        <time>2019-07-11T15:48:17Z</time>
      </trkpt>
      <trkpt lat="45.08135" lon="5.48842">
        <ele>695</ele>
        <time>2019-07-11T15:48:18Z</time>
      </trkpt>
      <trkpt lat="45.08108" lon="5.48864">
        <ele>698</ele>
        <time>2019-07-11T15:48:20Z</time>
      </trkpt>
      <trkpt lat="45.08082" lon="5.4888">
        <ele>699</ele>
        <time>2019-07-11T15:48:23Z</time>
      </trkpt>
      <trkpt lat="45.07962" lon="5.48935">
        <ele>702</ele>
        <time>2019-07-11T15:48:32Z</time>
      </trkpt>
      <trkpt lat="45.07934" lon="5.48951">
        <ele>704</ele>
        <time>2019-07-11T15:48:34Z</time>
      </trkpt>
      <trkpt lat="45.07867" lon="5.49">
        <ele>713</ele>
        <time>2019-07-11T15:48:37Z</time>
      </trkpt>
      <trkpt lat="45.07847" lon="5.49004">
        <ele>713</ele>
        <time>2019-07-11T15:48:49Z</time>
      </trkpt>
      <trkpt lat="45.07807" lon="5.48994">
        <ele>705</ele>
        <time>2019-07-11T15:48:54Z</time>
      </trkpt>
      <trkpt lat="45.07782" lon="5.48999">
        <ele>704</ele>
        <time>2019-07-11T15:48:57Z</time>
      </trkpt>
      <trkpt lat="45.07666" lon="5.49039">
        <ele>715</ele>
        <time>2019-07-11T15:48:58Z</time>
      </trkpt>
      <trkpt lat="45.07651" lon="5.49049">
        <ele>717</ele>
        <time>2019-07-11T15:49:00Z</time>
      </trkpt>
      <trkpt lat="45.07622" lon="5.49079">
        <ele>720</ele>
        <time>2019-07-11T15:49:12Z</time>
      </trkpt>
      <trkpt lat="45.07573" lon="5.49118">
        <ele>729</ele>
        <time>2019-07-11T15:49:17Z</time>
      </trkpt>
      <trkpt lat="45.07547" lon="5.49135">
        <ele>732</ele>
        <time>2019-07-11T15:49:23Z</time>
      </trkpt>
      <trkpt lat="45.07499" lon="5.49153">
        <ele>725</ele>
        <time>2019-07-11T15:49:26Z</time>
      </trkpt>
      <trkpt lat="45.07483" lon="5.49167">
        <ele>727</ele>
        <time>2019-07-11T15:49:33Z</time>
      </trkpt>
      <trkpt lat="45.07446" lon="5.49221">
        <ele>749</ele>
        <time>2019-07-11T15:49:35Z</time>
      </trkpt>
      <trkpt lat="45.0743" lon="5.49236">
        <ele>754</ele>
        <time>2019-07-11T15:49:38Z</time>
      </trkpt>
      <trkpt lat="45.07421" lon="5.49239">
        <ele>754</ele>
        <time>2019-07-11T15:49:40Z</time>
      </trkpt>
      <trkpt lat="45.07414" lon="5.49234">
        <ele>751</ele>
        <time>2019-07-11T15:49:43Z</time>
      </trkpt>
      <trkpt lat="45.07382" lon="5.4921">
        <ele>756</ele>
        <time>2019-07-11T15:49:51Z</time>
      </trkpt>
      <trkpt lat="45.07376" lon="5.49204">
        <ele>757</ele>
        <time>2019-07-11T15:49:55Z</time>
      </trkpt>
      <trkpt lat="45.07364" lon="5.49211">
        <ele>766</ele>
        <time>2019-07-11T15:49:58Z</time>
      </trkpt>
      <trkpt lat="45.07344" lon="5.49215">
        <ele>777</ele>
        <time>2019-07-11T15:50:01Z</time>
      </trkpt>
      <trkpt lat="45.07309" lon="5.49228">
        <ele>793</ele>
        <time>2019-07-11T15:50:09Z</time>
      </trkpt>
      <trkpt lat="45.07288" lon="5.49247">
        <ele>793</ele>
        <time>2019-07-11T15:50:23Z</time>
      </trkpt>
      <trkpt lat="45.07245" lon="5.49273">
        <ele>803</ele>
        <time>2019-07-11T15:50:30Z</time>
      </trkpt>
      <trkpt lat="45.07197" lon="5.49291">
        <ele>837</ele>
        <time>2019-07-11T15:50:34Z</time>
      </trkpt>
      <trkpt lat="45.07185" lon="5.49316">
        <ele>842</ele>
        <time>2019-07-11T15:50:39Z</time>
      </trkpt>
      <trkpt lat="45.07159" lon="5.49352">
        <ele>856</ele>
        <time>2019-07-11T15:50:42Z</time>
      </trkpt>
      <trkpt lat="45.0715" lon="5.49382">
        <ele>862</ele>
        <time>2019-07-11T15:50:44Z</time>
      </trkpt>
      <trkpt lat="45.07144" lon="5.49415">
        <ele>864</ele>
        <time>2019-07-11T15:50:55Z</time>
      </trkpt>
      <trkpt lat="45.07139" lon="5.49477">
        <ele>876</ele>
        <time>2019-07-11T15:51:03Z</time>
      </trkpt>
      <trkpt lat="45.07139" lon="5.49507">
        <ele>878</ele>
        <time>2019-07-11T15:51:06Z</time>
      </trkpt>
      <trkpt lat="45.07153" lon="5.49557">
        <ele>865</ele>
        <time>2019-07-11T15:51:09Z</time>
      </trkpt>
      <trkpt lat="45.07155" lon="5.49591">
        <ele>864</ele>
        <time>2019-07-11T15:51:12Z</time>
      </trkpt>
      <trkpt lat="45.0715" lon="5.49653">
        <ele>865</ele>
        <time>2019-07-11T15:51:15Z</time>
      </trkpt>
      <trkpt lat="45.07154" lon="5.49703">
        <ele>857</ele>
        <time>2019-07-11T15:51:19Z</time>
      </trkpt>
      <trkpt lat="45.0714" lon="5.49773">
        <ele>852</ele>
        <time>2019-07-11T15:51:27Z</time>
      </trkpt>
      <trkpt lat="45.07107" lon="5.49842">
        <ele>849</ele>
        <time>2019-07-11T15:51:37Z</time>
      </trkpt>
      <trkpt lat="45.07076" lon="5.49918">
        <ele>848</ele>
        <time>2019-07-11T15:51:40Z</time>
      </trkpt>
      <trkpt lat="45.07068" lon="5.49957">
        <ele>844</ele>
        <time>2019-07-11T15:51:42Z</time>
      </trkpt>
      <trkpt lat="45.07067" lon="5.49986">
        <ele>837</ele>
        <time>2019-07-11T15:51:44Z</time>
      </trkpt>
      <trkpt lat="45.0707" lon="5.50007">
        <ele>831</ele>
        <time>2019-07-11T15:51:45Z</time>
      </trkpt>
      <trkpt lat="45.07054" lon="5.5011">
        <ele>832</ele>
        <time>2019-07-11T15:51:49Z</time>
      </trkpt>
      <trkpt lat="45.07042" lon="5.50144">
        <ele>842</ele>
        <time>2019-07-11T15:51:51Z</time>
      </trkpt>
      <trkpt lat="45.07039" lon="5.50186">
        <ele>849</ele>
        <time>2019-07-11T15:51:56Z</time>
      </trkpt>
      <trkpt lat="45.07021" lon="5.50222">
        <ele>866</ele>
        <time>2019-07-11T15:52:10Z</time>
      </trkpt>
      <trkpt lat="45.0702" lon="5.50235">
        <ele>868</ele>
        <time>2019-07-11T15:52:19Z</time>
      </trkpt>
      <trkpt lat="45.07023" lon="5.50249">
        <ele>868</ele>
        <time>2019-07-11T15:52:21Z</time>
      </trkpt>
      <trkpt lat="45.07029" lon="5.50264">
        <ele>863</ele>
        <time>2019-07-11T15:52:24Z</time>
      </trkpt>
      <trkpt lat="45.07032" lon="5.50281">
        <ele>860</ele>
        <time>2019-07-11T15:52:27Z</time>
      </trkpt>
      <trkpt lat="45.07031" lon="5.5034">
        <ele>858</ele>
        <time>2019-07-11T15:52:31Z</time>
      </trkpt>
      <trkpt lat="45.07027" lon="5.50395">
        <ele>849</ele>
        <time>2019-07-11T15:52:34Z</time>
      </trkpt>
      <trkpt lat="45.0705" lon="5.50474">
        <ele>835</ele>
        <time>2019-07-11T15:52:37Z</time>
      </trkpt>
      <trkpt lat="45.07056" lon="5.50498">
        <ele>834</ele>
        <time>2019-07-11T15:52:40Z</time>
      </trkpt>
      <trkpt lat="45.07057" lon="5.50524">
        <ele>831</ele>
        <time>2019-07-11T15:52:46Z</time>
      </trkpt>
      <trkpt lat="45.07053" lon="5.50552">
        <ele>825</ele>
        <time>2019-07-11T15:52:49Z</time>
      </trkpt>
      <trkpt lat="45.07046" lon="5.50578">
        <ele>819</ele>
        <time>2019-07-11T15:53:03Z</time>
      </trkpt>
      <trkpt lat="45.07029" lon="5.50612">
        <ele>815</ele>
        <time>2019-07-11T15:53:07Z</time>
      </trkpt>
      <trkpt lat="45.07017" lon="5.50626">
        <ele>811</ele>
        <time>2019-07-11T15:53:10Z</time>
      </trkpt>
      <trkpt lat="45.07007" lon="5.50646">
        <ele>808</ele>
        <time>2019-07-11T15:53:12Z</time>
      </trkpt>
      <trkpt lat="45.06994" lon="5.50683">
        <ele>810</ele>
        <time>2019-07-11T15:53:13Z</time>
      </trkpt>
      <trkpt lat="45.06965" lon="5.50736">
        <ele>818</ele>
        <time>2019-07-11T15:53:14Z</time>
      </trkpt>
      <trkpt lat="45.06957" lon="5.5078">
        <ele>822</ele>
        <time>2019-07-11T15:53:22Z</time>
      </trkpt>
      <trkpt lat="45.06948" lon="5.50839">
        <ele>825</ele>
        <time>2019-07-11T15:53:24Z</time>
      </trkpt>
      <trkpt lat="45.06938" lon="5.50888">
        <ele>824</ele>
        <time>2019-07-11T15:53:34Z</time>
      </trkpt>
      <trkpt lat="45.06934" lon="5.50949">
        <ele>828</ele>
        <time>2019-07-11T15:53:36Z</time>
      </trkpt>
      <trkpt lat="45.06934" lon="5.51037">
        <ele>840</ele>
        <time>2019-07-11T15:53:38Z</time>
      </trkpt>
      <trkpt lat="45.06928" lon="5.51067">
        <ele>842</ele>
        <time>2019-07-11T15:53:46Z</time>
      </trkpt>
      <trkpt lat="45.06912" lon="5.51122">
        <ele>842</ele>
        <time>2019-07-11T15:53:48Z</time>
      </trkpt>
      <trkpt lat="45.06896" lon="5.51166">
        <ele>848</ele>
        <time>2019-07-11T15:53:51Z</time>
      </trkpt>
      <trkpt lat="45.06882" lon="5.51236">
        <ele>867</ele>
        <time>2019-07-11T15:53:54Z</time>
      </trkpt>
      <trkpt lat="45.06854" lon="5.51309">
        <ele>891</ele>
        <time>2019-07-11T15:53:57Z</time>
      </trkpt>
      <trkpt lat="45.06845" lon="5.51338">
        <ele>902</ele>
        <time>2019-07-11T15:53:59Z</time>
      </trkpt>
      <trkpt lat="45.06838" lon="5.51382">
        <ele>901</ele>
        <time>2019-07-11T15:54:02Z</time>
      </trkpt>
      <trkpt lat="45.06826" lon="5.5142">
        <ele>904</ele>
        <time>2019-07-11T15:54:12Z</time>
      </trkpt>
      <trkpt lat="45.06823" lon="5.51435">
        <ele>905</ele>
        <time>2019-07-11T15:54:15Z</time>
      </trkpt>
      <trkpt lat="45.06823" lon="5.51469">
        <ele>900</ele>
        <time>2019-07-11T15:54:17Z</time>
      </trkpt>
      <trkpt lat="45.0683" lon="5.51509">
        <ele>894</ele>
        <time>2019-07-11T15:54:20Z</time>
      </trkpt>
      <trkpt lat="45.06826" lon="5.5154">
        <ele>903</ele>
        <time>2019-07-11T15:54:22Z</time>
      </trkpt>
      <trkpt lat="45.06805" lon="5.5162">
        <ele>926</ele>
        <time>2019-07-11T15:54:23Z</time>
      </trkpt>
      <trkpt lat="45.06801" lon="5.51648">
        <ele>934</ele>
        <time>2019-07-11T15:54:26Z</time>
      </trkpt>
      <trkpt lat="45.06807" lon="5.51673">
        <ele>937</ele>
        <time>2019-07-11T15:54:31Z</time>
      </trkpt>
      <trkpt lat="45.06853" lon="5.51709">
        <ele>938</ele>
        <time>2019-07-11T15:54:34Z</time>
      </trkpt>
      <trkpt lat="45.06883" lon="5.51746">
        <ele>948</ele>
        <time>2019-07-11T15:54:36Z</time>
      </trkpt>
      <trkpt lat="45.06894" lon="5.51757">
        <ele>947</ele>
        <time>2019-07-11T15:54:39Z</time>
      </trkpt>
      <trkpt lat="45.06947" lon="5.5182">
        <ele>920</ele>
        <time>2019-07-11T15:54:52Z</time>
      </trkpt>
      <trkpt lat="45.06986" lon="5.51881">
        <ele>913</ele>
        <time>2019-07-11T15:54:55Z</time>
      </trkpt>
      <trkpt lat="45.07021" lon="5.51922">
        <ele>903</ele>
        <time>2019-07-11T15:54:57Z</time>
      </trkpt>
      <trkpt lat="45.07049" lon="5.51951">
        <ele>926</ele>
        <time>2019-07-11T15:54:59Z</time>
      </trkpt>
      <trkpt lat="45.07068" lon="5.51961">
        <ele>937</ele>
        <time>2019-07-11T15:55:00Z</time>
      </trkpt>
      <trkpt lat="45.0709" lon="5.51963">
        <ele>948</ele>
        <time>2019-07-11T15:55:03Z</time>
      </trkpt>
      <trkpt lat="45.07113" lon="5.51959">
        <ele>956</ele>
        <time>2019-07-11T15:55:13Z</time>
      </trkpt>
      <trkpt lat="45.07138" lon="5.51959">
        <ele>962</ele>
        <time>2019-07-11T15:55:16Z</time>
      </trkpt>
      <trkpt lat="45.07155" lon="5.51976">
        <ele>959</ele>
        <time>2019-07-11T15:55:19Z</time>
      </trkpt>
      <trkpt lat="45.07176" lon="5.51988">
        <ele>956</ele>
        <time>2019-07-11T15:55:28Z</time>
      </trkpt>
      <trkpt lat="45.07199" lon="5.51993">
        <ele>952</ele>
        <time>2019-07-11T15:55:37Z</time>
      </trkpt>
      <trkpt lat="45.07237" lon="5.52014">
        <ele>946</ele>
        <time>2019-07-11T15:55:42Z</time>
      </trkpt>
      <trkpt lat="45.0729" lon="5.5202">
        <ele>947</ele>
        <time>2019-07-11T15:55:46Z</time>
      </trkpt>
      <trkpt lat="45.0733" lon="5.5203">
        <ele>949</ele>
        <time>2019-07-11T15:55:52Z</time>
      </trkpt>
      <trkpt lat="45.07353" lon="5.52037">
        <ele>952</ele>
        <time>2019-07-11T15:55:55Z</time>
      </trkpt>
      <trkpt lat="45.0739" lon="5.52041">
        <ele>960</ele>
        <time>2019-07-11T15:55:58Z</time>
      </trkpt>
      <trkpt lat="45.07494" lon="5.52039">
        <ele>963</ele>
        <time>2019-07-11T15:56:00Z</time>
      </trkpt>
      <trkpt lat="45.07507" lon="5.52044">
        <ele>962</ele>
        <time>2019-07-11T15:56:02Z</time>
      </trkpt>
      <trkpt lat="45.07518" lon="5.52059">
        <ele>958</ele>
        <time>2019-07-11T15:56:05Z</time>
      </trkpt>
      <trkpt lat="45.07543" lon="5.52106">
        <ele>958</ele>
        <time>2019-07-11T15:56:07Z</time>
      </trkpt>
      <trkpt lat="45.07559" lon="5.5212">
        <ele>960</ele>
        <time>2019-07-11T15:56:10Z</time>
      </trkpt>
      <trkpt lat="45.07591" lon="5.52131">
        <ele>960</ele>
        <time>2019-07-11T15:56:19Z</time>
      </trkpt>
      <trkpt lat="45.07645" lon="5.52134">
        <ele>972</ele>
        <time>2019-07-11T15:56:21Z</time>
      </trkpt>
      <trkpt lat="45.07669" lon="5.52125">
        <ele>979</ele>
        <time>2019-07-11T15:56:23Z</time>
      </trkpt>
      <trkpt lat="45.07715" lon="5.52114">
        <ele>978</ele>
        <time>2019-07-11T15:56:35Z</time>
      </trkpt>
      <trkpt lat="45.07744" lon="5.52099">
        <ele>978</ele>
        <time>2019-07-11T15:56:45Z</time>
      </trkpt>
      <trkpt lat="45.07757" lon="5.52096">
        <ele>978</ele>
        <time>2019-07-11T15:56:57Z</time>
      </trkpt>
      <trkpt lat="45.07768" lon="5.52096">
        <ele>978</ele>
        <time>2019-07-11T15:57:09Z</time>
      </trkpt>
      <trkpt lat="45.07779" lon="5.52099">
        <ele>977</ele>
        <time>2019-07-11T15:57:12Z</time>
      </trkpt>
      <trkpt lat="45.07799" lon="5.5211">
        <ele>976</ele>
        <time>2019-07-11T15:57:14Z</time>
      </trkpt>
      <trkpt lat="45.07826" lon="5.52117">
        <ele>974</ele>
        <time>2019-07-11T15:57:16Z</time>
      </trkpt>
      <trkpt lat="45.07843" lon="5.5212">
        <ele>973</ele>
        <time>2019-07-11T15:57:28Z</time>
      </trkpt>
      <trkpt lat="45.07885" lon="5.52115">
        <ele>973</ele>
        <time>2019-07-11T15:57:41Z</time>
      </trkpt>
      <trkpt lat="45.07947" lon="5.52124">
        <ele>973</ele>
        <time>2019-07-11T15:57:49Z</time>
      </trkpt>
      <trkpt lat="45.07962" lon="5.52134">
        <ele>971</ele>
        <time>2019-07-11T15:57:55Z</time>
      </trkpt>
      <trkpt lat="45.08005" lon="5.52171">
        <ele>965</ele>
        <time>2019-07-11T15:57:58Z</time>
      </trkpt>
      <trkpt lat="45.08013" lon="5.52174">
        <ele>965</ele>
        <time>2019-07-11T15:58:02Z</time>
      </trkpt>
      <trkpt lat="45.08069" lon="5.5214">
        <ele>968</ele>
        <time>2019-07-11T15:58:07Z</time>
      </trkpt>
      <trkpt lat="45.08128" lon="5.52114">
        <ele>970</ele>
        <time>2019-07-11T15:58:15Z</time>
      </trkpt>
      <trkpt lat="45.08139" lon="5.52111">
        <ele>970</ele>
        <time>2019-07-11T15:58:19Z</time>
      </trkpt>
      <trkpt lat="45.0815" lon="5.52112">
        <ele>970</ele>
        <time>2019-07-11T15:58:23Z</time>
      </trkpt>
      <trkpt lat="45.08177" lon="5.52125">
        <ele>967</ele>
        <time>2019-07-11T15:58:31Z</time>
      </trkpt>
      <trkpt lat="45.08193" lon="5.52125">
        <ele>966</ele>
        <time>2019-07-11T15:58:46Z</time>
      </trkpt>
      <trkpt lat="45.08208" lon="5.52118">
        <ele>965</ele>
        <time>2019-07-11T15:58:51Z</time>
      </trkpt>
      <trkpt lat="45.08217" lon="5.52108">
        <ele>965</ele>
        <time>2019-07-11T15:58:55Z</time>
      </trkpt>
      <trkpt lat="45.08225" lon="5.52095">
        <ele>964</ele>
        <time>2019-07-11T15:59:01Z</time>
      </trkpt>
      <trkpt lat="45.08231" lon="5.52075">
        <ele>965</ele>
        <time>2019-07-11T15:59:04Z</time>
      </trkpt>
      <trkpt lat="45.08238" lon="5.52046">
        <ele>969</ele>
        <time>2019-07-11T15:59:07Z</time>
      </trkpt>
      <trkpt lat="45.08243" lon="5.52036">
        <ele>971</ele>
        <time>2019-07-11T15:59:12Z</time>
      </trkpt>
      <trkpt lat="45.0825" lon="5.52027">
        <ele>971</ele>
        <time>2019-07-11T15:59:17Z</time>
      </trkpt>
      <trkpt lat="45.08266" lon="5.52018">
        <ele>971</ele>
        <time>2019-07-11T15:59:50Z</time>
      </trkpt>
      <trkpt lat="45.08314" lon="5.52001">
        <ele>965</ele>
        <time>2019-07-11T16:00:13Z</time>
      </trkpt>
      <trkpt lat="45.08329" lon="5.52">
        <ele>962</ele>
        <time>2019-07-11T16:00:21Z</time>
      </trkpt>
      <trkpt lat="45.08342" lon="5.52001">
        <ele>961</ele>
        <time>2019-07-11T16:00:25Z</time>
      </trkpt>
      <trkpt lat="45.08407" lon="5.52026">
        <ele>956</ele>
        <time>2019-07-11T16:00:47Z</time>
      </trkpt>
      <trkpt lat="45.08439" lon="5.52024">
        <ele>957</ele>
        <time>2019-07-11T16:00:53Z</time>
      </trkpt>
      <trkpt lat="45.08451" lon="5.52026">
        <ele>956</ele>
        <time>2019-07-11T16:00:58Z</time>
      </trkpt>
      <trkpt lat="45.08459" lon="5.52032">
        <ele>955</ele>
        <time>2019-07-11T16:01:10Z</time>
      </trkpt>
      <trkpt lat="45.08467" lon="5.52043">
        <ele>953</ele>
        <time>2019-07-11T16:01:13Z</time>
      </trkpt>
      <trkpt lat="45.08512" lon="5.52116">
        <ele>941</ele>
        <time>2019-07-11T16:01:17Z</time>
      </trkpt>
      <trkpt lat="45.08529" lon="5.52147">
        <ele>939</ele>
        <time>2019-07-11T16:01:19Z</time>
      </trkpt>
      <trkpt lat="45.08544" lon="5.52183">
        <ele>937</ele>
        <time>2019-07-11T16:01:21Z</time>
      </trkpt>
      <trkpt lat="45.08556" lon="5.52199">
        <ele>937</ele>
        <time>2019-07-11T16:01:25Z</time>
      </trkpt>
      <trkpt lat="45.08588" lon="5.52236">
        <ele>934</ele>
        <time>2019-07-11T16:01:32Z</time>
      </trkpt>
      <trkpt lat="45.08594" lon="5.52248">
        <ele>934</ele>
        <time>2019-07-11T16:01:42Z</time>
      </trkpt>
      <trkpt lat="45.08602" lon="5.52272">
        <ele>934</ele>
        <time>2019-07-11T16:03:19Z</time>
      </trkpt>
      <trkpt lat="45.08603" lon="5.52284">
        <ele>934</ele>
        <time>2019-07-11T16:04:00Z</time>
      </trkpt>
      <trkpt lat="45.08599" lon="5.5231">
        <ele>934</ele>
        <time>2019-07-11T16:04:05Z</time>
      </trkpt>
      <trkpt lat="45.08584" lon="5.52372">
        <ele>934</ele>
        <time>2019-07-11T16:04:12Z</time>
      </trkpt>
      <trkpt lat="45.08579" lon="5.52398">
        <ele>933</ele>
        <time>2019-07-11T16:04:22Z</time>
      </trkpt>
      <trkpt lat="45.08576" lon="5.52422">
        <ele>933</ele>
        <time>2019-07-11T16:04:28Z</time>
      </trkpt>
      <trkpt lat="45.08594" lon="5.52425">
        <ele>934</ele>
        <time>2019-07-11T16:04:31Z</time>
      </trkpt>
      <trkpt lat="45.08642" lon="5.52418">
        <ele>937</ele>
        <time>2019-07-11T16:04:33Z</time>
      </trkpt>
      <trkpt lat="45.0872" lon="5.52404">
        <ele>943</ele>
        <time>2019-07-11T16:04:38Z</time>
      </trkpt>
      <trkpt lat="45.08755" lon="5.52399">
        <ele>944</ele>
        <time>2019-07-11T16:04:41Z</time>
      </trkpt>
      <trkpt lat="45.0878" lon="5.524">
        <ele>943</ele>
        <time>2019-07-11T16:04:49Z</time>
      </trkpt>
      <trkpt lat="45.08805" lon="5.52409">
        <ele>943</ele>
        <time>2019-07-11T16:04:53Z</time>
      </trkpt>
      <trkpt lat="45.08821" lon="5.5242">
        <ele>944</ele>
        <time>2019-07-11T16:04:55Z</time>
      </trkpt>
      <trkpt lat="45.08833" lon="5.52432">
        <ele>949</ele>
        <time>2019-07-11T16:04:58Z</time>
      </trkpt>
      <trkpt lat="45.08877" lon="5.52492">
        <ele>959</ele>
        <time>2019-07-11T16:05:05Z</time>
      </trkpt>
      <trkpt lat="45.08914" lon="5.52524">
        <ele>957</ele>
        <time>2019-07-11T16:05:09Z</time>
      </trkpt>
      <trkpt lat="45.0893" lon="5.52533">
        <ele>956</ele>
        <time>2019-07-11T16:05:13Z</time>
      </trkpt>
      <trkpt lat="45.08946" lon="5.5254">
        <ele>955</ele>
        <time>2019-07-11T16:05:26Z</time>
      </trkpt>
      <trkpt lat="45.08961" lon="5.5254">
        <ele>952</ele>
        <time>2019-07-11T16:05:39Z</time>
      </trkpt>
      <trkpt lat="45.08978" lon="5.52536">
        <ele>947</ele>
        <time>2019-07-11T16:05:45Z</time>
      </trkpt>
      <trkpt lat="45.08998" lon="5.52523">
        <ele>940</ele>
        <time>2019-07-11T16:05:57Z</time>
      </trkpt>
      <trkpt lat="45.09038" lon="5.52487">
        <ele>941</ele>
        <time>2019-07-11T16:06:02Z</time>
      </trkpt>
      <trkpt lat="45.09083" lon="5.52436">
        <ele>945</ele>
        <time>2019-07-11T16:06:03Z</time>
      </trkpt>
      <trkpt lat="45.09094" lon="5.52429">
        <ele>946</ele>
        <time>2019-07-11T16:06:04Z</time>
      </trkpt>
      <trkpt lat="45.09105" lon="5.52425">
        <ele>946</ele>
        <time>2019-07-11T16:06:05Z</time>
      </trkpt>
      <trkpt lat="45.09118" lon="5.52424">
        <ele>948</ele>
        <time>2019-07-11T16:06:06Z</time>
      </trkpt>
      <trkpt lat="45.09125" lon="5.52426">
        <ele>948</ele>
        <time>2019-07-11T16:06:08Z</time>
      </trkpt>
      <trkpt lat="45.09143" lon="5.52435">
        <ele>950</ele>
        <time>2019-07-11T16:06:13Z</time>
      </trkpt>
      <trkpt lat="45.09153" lon="5.52446">
        <ele>950</ele>
        <time>2019-07-11T16:06:16Z</time>
      </trkpt>
      <trkpt lat="45.09168" lon="5.52478">
        <ele>948</ele>
        <time>2019-07-11T16:07:47Z</time>
      </trkpt>
      <trkpt lat="45.092" lon="5.52579">
        <ele>951</ele>
        <time>2019-07-11T16:07:58Z</time>
      </trkpt>
      <trkpt lat="45.0921" lon="5.52653">
        <ele>960</ele>
        <time>2019-07-11T16:08:04Z</time>
      </trkpt>
      <trkpt lat="45.09215" lon="5.5267">
        <ele>961</ele>
        <time>2019-07-11T16:08:11Z</time>
      </trkpt>
      <trkpt lat="45.09223" lon="5.5269">
        <ele>964</ele>
        <time>2019-07-11T16:08:36Z</time>
      </trkpt>
      <trkpt lat="45.09232" lon="5.52704">
        <ele>964</ele>
        <time>2019-07-11T16:08:41Z</time>
      </trkpt>
      <trkpt lat="45.09254" lon="5.52727">
        <ele>963</ele>
        <time>2019-07-11T16:08:53Z</time>
      </trkpt>
      <trkpt lat="45.09268" lon="5.52733">
        <ele>963</ele>
        <time>2019-07-11T16:09:10Z</time>
      </trkpt>
      <trkpt lat="45.09283" lon="5.52736">
        <ele>962</ele>
        <time>2019-07-11T16:09:41Z</time>
      </trkpt>
      <trkpt lat="45.09302" lon="5.52736">
        <ele>960</ele>
        <time>2019-07-11T16:10:00Z</time>
      </trkpt>
      <trkpt lat="45.09332" lon="5.52726">
        <ele>954</ele>
        <time>2019-07-11T16:10:37Z</time>
      </trkpt>
      <trkpt lat="45.09348" lon="5.52714">
        <ele>953</ele>
        <time>2019-07-11T16:10:58Z</time>
      </trkpt>
      <trkpt lat="45.09412" lon="5.52651">
        <ele>949</ele>
        <time>2019-07-11T16:11:51Z</time>
      </trkpt>
      <trkpt lat="45.0943" lon="5.52628">
        <ele>948</ele>
        <time>2019-07-11T16:11:54Z</time>
      </trkpt>
      <trkpt lat="45.09442" lon="5.52616">
        <ele>947</ele>
        <time>2019-07-11T16:12:00Z</time>
      </trkpt>
      <trkpt lat="45.09452" lon="5.52611">
        <ele>947</ele>
        <time>2019-07-11T16:12:06Z</time>
      </trkpt>
      <trkpt lat="45.09459" lon="5.52611">
        <ele>947</ele>
        <time>2019-07-11T16:14:23Z</time>
      </trkpt>
      <trkpt lat="45.09468" lon="5.52614">
        <ele>947</ele>
        <time>2019-07-11T16:15:35Z</time>
      </trkpt>
      <trkpt lat="45.09505" lon="5.5264">
        <ele>951</ele>
        <time>2019-07-11T16:16:42Z</time>
      </trkpt>
      <trkpt lat="45.09519" lon="5.52646">
        <ele>952</ele>
        <time>2019-07-11T16:16:47Z</time>
      </trkpt>
      <trkpt lat="45.09573" lon="5.5266">
        <ele>955</ele>
        <time>2019-07-11T16:16:50Z</time>
      </trkpt>
      <trkpt lat="45.09584" lon="5.52659">
        <ele>955</ele>
        <time>2019-07-11T16:16:56Z</time>
      </trkpt>
      <trkpt lat="45.09593" lon="5.52656">
        <ele>955</ele>
        <time>2019-07-11T16:17:29Z</time>
      </trkpt>
      <trkpt lat="45.09631" lon="5.52622">
        <ele>953</ele>
        <time>2019-07-11T16:17:30Z</time>
      </trkpt>
      <trkpt lat="45.09642" lon="5.52616">
        <ele>953</ele>
        <time>2019-07-11T16:17:30Z</time>
      </trkpt>
      <trkpt lat="45.09658" lon="5.52611">
        <ele>953</ele>
        <time>2019-07-11T16:17:32Z</time>
      </trkpt>
      <trkpt lat="45.09674" lon="5.52612">
        <ele>954</ele>
        <time>2019-07-11T16:17:32Z</time>
      </trkpt>
      <trkpt lat="45.0969" lon="5.52618">
        <ele>955</ele>
        <time>2019-07-11T16:17:34Z</time>
      </trkpt>
      <trkpt lat="45.09702" lon="5.52628">
        <ele>956</ele>
        <time>2019-07-11T16:17:35Z</time>
      </trkpt>
      <trkpt lat="45.09713" lon="5.5264">
        <ele>956</ele>
        <time>2019-07-11T16:17:36Z</time>
      </trkpt>
      <trkpt lat="45.09745" lon="5.52712">
        <ele>973</ele>
        <time>2019-07-11T16:18:37Z</time>
      </trkpt>
      <trkpt lat="45.09755" lon="5.52728">
        <ele>978</ele>
        <time>2019-07-11T16:18:43Z</time>
      </trkpt>
      <trkpt lat="45.09766" lon="5.5274">
        <ele>983</ele>
        <time>2019-07-11T16:18:47Z</time>
      </trkpt>
      <trkpt lat="45.09778" lon="5.52745">
        <ele>985</ele>
        <time>2019-07-11T16:18:57Z</time>
      </trkpt>
      <trkpt lat="45.0979" lon="5.52746">
        <ele>986</ele>
        <time>2019-07-11T16:19:13Z</time>
      </trkpt>
      <trkpt lat="45.09799" lon="5.52741">
        <ele>984</ele>
        <time>2019-07-11T16:19:18Z</time>
      </trkpt>
      <trkpt lat="45.09812" lon="5.5273">
        <ele>980</ele>
        <time>2019-07-11T16:19:19Z</time>
      </trkpt>
      <trkpt lat="45.09832" lon="5.52709">
        <ele>972</ele>
        <time>2019-07-11T16:19:20Z</time>
      </trkpt>
      <trkpt lat="45.09845" lon="5.5269">
        <ele>969</ele>
        <time>2019-07-11T16:19:21Z</time>
      </trkpt>
      <trkpt lat="45.09852" lon="5.52675">
        <ele>966</ele>
        <time>2019-07-11T16:19:22Z</time>
      </trkpt>
      <trkpt lat="45.09858" lon="5.52655">
        <ele>964</ele>
        <time>2019-07-11T16:19:23Z</time>
      </trkpt>
      <trkpt lat="45.09882" lon="5.5256">
        <ele>962</ele>
        <time>2019-07-11T16:19:24Z</time>
      </trkpt>
      <trkpt lat="45.0989" lon="5.52538">
        <ele>962</ele>
        <time>2019-07-11T16:19:32Z</time>
      </trkpt>
      <trkpt lat="45.09898" lon="5.52527">
        <ele>962</ele>
        <time>2019-07-11T16:19:51Z</time>
      </trkpt>
      <trkpt lat="45.09908" lon="5.52521">
        <ele>961</ele>
        <time>2019-07-11T16:20:00Z</time>
      </trkpt>
      <trkpt lat="45.09917" lon="5.52518">
        <ele>960</ele>
        <time>2019-07-11T16:20:08Z</time>
      </trkpt>
      <trkpt lat="45.09931" lon="5.5252">
        <ele>961</ele>
        <time>2019-07-11T16:20:17Z</time>
      </trkpt>
      <trkpt lat="45.09984" lon="5.52553">
        <ele>964</ele>
        <time>2019-07-11T16:20:20Z</time>
      </trkpt>
      <trkpt lat="45.09997" lon="5.52563">
        <ele>964</ele>
        <time>2019-07-11T16:20:24Z</time>
      </trkpt>
      <trkpt lat="45.10011" lon="5.52583">
        <ele>965</ele>
        <time>2019-07-11T16:20:28Z</time>
      </trkpt>
      <trkpt lat="45.10036" lon="5.52647">
        <ele>980</ele>
        <time>2019-07-11T16:20:43Z</time>
      </trkpt>
      <trkpt lat="45.10061" lon="5.52705">
        <ele>986</ele>
        <time>2019-07-11T16:20:44Z</time>
      </trkpt>
      <trkpt lat="45.10078" lon="5.52734">
        <ele>984</ele>
        <time>2019-07-11T16:20:45Z</time>
      </trkpt>
      <trkpt lat="45.10096" lon="5.52755">
        <ele>985</ele>
        <time>2019-07-11T16:20:46Z</time>
      </trkpt>
      <trkpt lat="45.10125" lon="5.52783">
        <ele>990</ele>
        <time>2019-07-11T16:20:53Z</time>
      </trkpt>
      <trkpt lat="45.10138" lon="5.52791">
        <ele>992</ele>
        <time>2019-07-11T16:20:56Z</time>
      </trkpt>
      <trkpt lat="45.10155" lon="5.52798">
        <ele>992</ele>
        <time>2019-07-11T16:20:58Z</time>
      </trkpt>
      <trkpt lat="45.10169" lon="5.52799">
        <ele>992</ele>
        <time>2019-07-11T16:21:05Z</time>
      </trkpt>
      <trkpt lat="45.1018" lon="5.52795">
        <ele>993</ele>
        <time>2019-07-11T16:21:07Z</time>
      </trkpt>
      <trkpt lat="45.10195" lon="5.52787">
        <ele>993</ele>
        <time>2019-07-11T16:21:16Z</time>
      </trkpt>
      <trkpt lat="45.10206" lon="5.52777">
        <ele>991</ele>
        <time>2019-07-11T16:21:21Z</time>
      </trkpt>
      <trkpt lat="45.10217" lon="5.52764">
        <ele>988</ele>
        <time>2019-07-11T16:21:23Z</time>
      </trkpt>
      <trkpt lat="45.10243" lon="5.52705">
        <ele>984</ele>
        <time>2019-07-11T16:21:47Z</time>
      </trkpt>
      <trkpt lat="45.10252" lon="5.52694">
        <ele>984</ele>
        <time>2019-07-11T16:21:49Z</time>
      </trkpt>
      <trkpt lat="45.10266" lon="5.5269">
        <ele>983</ele>
        <time>2019-07-11T16:21:52Z</time>
      </trkpt>
      <trkpt lat="45.10333" lon="5.52701">
        <ele>984</ele>
        <time>2019-07-11T16:22:00Z</time>
      </trkpt>
      <trkpt lat="45.10388" lon="5.52683">
        <ele>982</ele>
        <time>2019-07-11T16:22:02Z</time>
      </trkpt>
      <trkpt lat="45.10453" lon="5.52678">
        <ele>979</ele>
        <time>2019-07-11T16:22:06Z</time>
      </trkpt>
      <trkpt lat="45.10518" lon="5.52694">
        <ele>978</ele>
        <time>2019-07-11T16:22:40Z</time>
      </trkpt>
      <trkpt lat="45.10531" lon="5.52707">
        <ele>979</ele>
        <time>2019-07-11T16:22:47Z</time>
      </trkpt>
      <trkpt lat="45.10536" lon="5.52723">
        <ele>979</ele>
        <time>2019-07-11T16:22:57Z</time>
      </trkpt>
      <trkpt lat="45.10534" lon="5.52739">
        <ele>978</ele>
        <time>2019-07-11T16:22:59Z</time>
      </trkpt>
      <trkpt lat="45.10492" lon="5.52812">
        <ele>982</ele>
        <time>2019-07-11T16:23:09Z</time>
      </trkpt>
      <trkpt lat="45.10471" lon="5.52916">
        <ele>996</ele>
        <time>2019-07-11T16:23:18Z</time>
      </trkpt>
      <trkpt lat="45.10484" lon="5.52977">
        <ele>998</ele>
        <time>2019-07-11T16:23:26Z</time>
      </trkpt>
      <trkpt lat="45.10508" lon="5.53003">
        <ele>994</ele>
        <time>2019-07-11T16:23:31Z</time>
      </trkpt>
      <trkpt lat="45.10529" lon="5.53008">
        <ele>992</ele>
        <time>2019-07-11T16:23:42Z</time>
      </trkpt>
      <trkpt lat="45.1055" lon="5.53006">
        <ele>988</ele>
        <time>2019-07-11T16:23:46Z</time>
      </trkpt>
      <trkpt lat="45.10572" lon="5.52982">
        <ele>981</ele>
        <time>2019-07-11T16:24:08Z</time>
      </trkpt>
      <trkpt lat="45.10605" lon="5.52938">
        <ele>978</ele>
        <time>2019-07-11T16:24:22Z</time>
      </trkpt>
      <trkpt lat="45.10627" lon="5.52928">
        <ele>978</ele>
        <time>2019-07-11T16:24:31Z</time>
      </trkpt>
      <trkpt lat="45.10648" lon="5.52932">
        <ele>980</ele>
        <time>2019-07-11T16:24:37Z</time>
      </trkpt>
      <trkpt lat="45.10689" lon="5.52955">
        <ele>986</ele>
        <time>2019-07-11T16:24:51Z</time>
      </trkpt>
      <trkpt lat="45.10772" lon="5.52995">
        <ele>991</ele>
        <time>2019-07-11T16:25:09Z</time>
      </trkpt>
      <trkpt lat="45.10798" lon="5.52992">
        <ele>990</ele>
        <time>2019-07-11T16:25:14Z</time>
      </trkpt>
      <trkpt lat="45.10818" lon="5.52978">
        <ele>988</ele>
        <time>2019-07-11T16:25:25Z</time>
      </trkpt>
      <trkpt lat="45.10844" lon="5.52947">
        <ele>982</ele>
        <time>2019-07-11T16:25:35Z</time>
      </trkpt>
      <trkpt lat="45.10858" lon="5.52936">
        <ele>979</ele>
        <time>2019-07-11T16:25:46Z</time>
      </trkpt>
      <trkpt lat="45.10874" lon="5.52931">
        <ele>977</ele>
        <time>2019-07-11T16:25:53Z</time>
      </trkpt>
      <trkpt lat="45.109" lon="5.52937">
        <ele>974</ele>
        <time>2019-07-11T16:25:57Z</time>
      </trkpt>
      <trkpt lat="45.10927" lon="5.52948">
        <ele>974</ele>
        <time>2019-07-11T16:26:12Z</time>
      </trkpt>
      <trkpt lat="45.11106" lon="5.53042">
        <ele>967</ele>
        <time>2019-07-11T16:26:18Z</time>
      </trkpt>
      <trkpt lat="45.11222" lon="5.53109">
        <ele>962</ele>
        <time>2019-07-11T16:26:34Z</time>
      </trkpt>
      <trkpt lat="45.11266" lon="5.53127">
        <ele>959</ele>
        <time>2019-07-11T16:26:39Z</time>
      </trkpt>
      <trkpt lat="45.1129" lon="5.53129">
        <ele>961</ele>
        <time>2019-07-11T16:26:43Z</time>
      </trkpt>
      <trkpt lat="45.11415" lon="5.53125">
        <ele>962</ele>
        <time>2019-07-11T16:26:48Z</time>
      </trkpt>
      <trkpt lat="45.11448" lon="5.5313">
        <ele>963</ele>
        <time>2019-07-11T16:27:02Z</time>
      </trkpt>
      <trkpt lat="45.11474" lon="5.53139">
        <ele>964</ele>
        <time>2019-07-11T16:27:07Z</time>
      </trkpt>
      <trkpt lat="45.1154" lon="5.53168">
        <ele>963</ele>
        <time>2019-07-11T16:27:10Z</time>
      </trkpt>
      <trkpt lat="45.11555" lon="5.53176">
        <ele>964</ele>
        <time>2019-07-11T16:27:23Z</time>
      </trkpt>
      <trkpt lat="45.11575" lon="5.53184">
        <ele>965</ele>
        <time>2019-07-11T16:27:28Z</time>
      </trkpt>
      <trkpt lat="45.11588" lon="5.53187">
        <ele>965</ele>
        <time>2019-07-11T16:27:42Z</time>
      </trkpt>
      <trkpt lat="45.116" lon="5.53186">
        <ele>965</ele>
        <time>2019-07-11T16:27:47Z</time>
      </trkpt>
      <trkpt lat="45.11617" lon="5.53182">
        <ele>964</ele>
        <time>2019-07-11T16:28:10Z</time>
      </trkpt>
      <trkpt lat="45.11656" lon="5.5317">
        <ele>963</ele>
        <time>2019-07-11T16:28:28Z</time>
      </trkpt>
      <trkpt lat="45.11712" lon="5.53155">
        <ele>964</ele>
        <time>2019-07-11T16:28:49Z</time>
      </trkpt>
      <trkpt lat="45.12255" lon="5.53056">
        <ele>974</ele>
        <time>2019-07-11T16:29:06Z</time>
      </trkpt>
      <trkpt lat="45.12476" lon="5.52978">
        <ele>980</ele>
        <time>2019-07-11T16:29:12Z</time>
      </trkpt>
      <trkpt lat="45.12502" lon="5.52958">
        <ele>980</ele>
        <time>2019-07-11T16:29:24Z</time>
      </trkpt>
      <trkpt lat="45.12533" lon="5.52921">
        <ele>983</ele>
        <time>2019-07-11T16:29:32Z</time>
      </trkpt>
      <trkpt lat="45.12573" lon="5.52865">
        <ele>987</ele>
        <time>2019-07-11T16:29:36Z</time>
      </trkpt>
      <trkpt lat="45.12592" lon="5.5283">
        <ele>989</ele>
        <time>2019-07-11T16:29:43Z</time>
      </trkpt>
      <trkpt lat="45.12604" lon="5.52812">
        <ele>991</ele>
        <time>2019-07-11T16:29:46Z</time>
      </trkpt>
      <trkpt lat="45.12612" lon="5.52803">
        <ele>991</ele>
        <time>2019-07-11T16:29:58Z</time>
      </trkpt>
      <trkpt lat="45.12638" lon="5.52788">
        <ele>992</ele>
        <time>2019-07-11T16:30:03Z</time>
      </trkpt>
      <trkpt lat="45.12657" lon="5.52774">
        <ele>992</ele>
        <time>2019-07-11T16:30:37Z</time>
      </trkpt>
      <trkpt lat="45.12687" lon="5.52737">
        <ele>993</ele>
        <time>2019-07-11T16:30:51Z</time>
      </trkpt>
      <trkpt lat="45.12705" lon="5.52717">
        <ele>993</ele>
        <time>2019-07-11T16:30:55Z</time>
      </trkpt>
      <trkpt lat="45.1272" lon="5.52711">
        <ele>992</ele>
        <time>2019-07-11T16:31:05Z</time>
      </trkpt>
      <trkpt lat="45.12732" lon="5.52712">
        <ele>992</ele>
        <time>2019-07-11T16:31:05Z</time>
      </trkpt>
      <trkpt lat="45.12766" lon="5.52747">
        <ele>990</ele>
      </trkpt>
      <trkpt lat="45.12789" lon="5.52762">
        <ele>990</ele>
      </trkpt>
      <trkpt lat="45.1281" lon="5.52771">
        <ele>990</ele>
      </trkpt>
      <trkpt lat="45.12879" lon="5.52785">
        <ele>989</ele>
      </trkpt>
      <trkpt lat="45.12952" lon="5.52792">
        <ele>985</ele>
      </trkpt>
      <trkpt lat="45.12986" lon="5.52799">
        <ele>982</ele>
      </trkpt>
      <trkpt lat="45.13055" lon="5.52806">
        <ele>978</ele>
      </trkpt>
      <trkpt lat="45.13084" lon="5.52804">
        <ele>977</ele>
      </trkpt>
      <trkpt lat="45.13085" lon="5.5281">
        <ele>977</ele>
      </trkpt>
      <trkpt lat="45.13088" lon="5.52815">
        <ele>977</ele>
      </trkpt>
      <trkpt lat="45.13095" lon="5.52818">
        <ele>977</ele>
      </trkpt>
      <trkpt lat="45.13097" lon="5.52817">
        <ele>977</ele>
      </trkpt>
      <trkpt lat="45.13102" lon="5.5283">
        <ele>976</ele>
      </trkpt>
      <trkpt lat="45.13124" lon="5.52865">
        <ele>976</ele>
      </trkpt>
      <trkpt lat="45.1314" lon="5.52857">
        <ele>975</ele>
      </trkpt>
      <trkpt lat="45.13631" lon="5.52662">
        <ele>982</ele>
      </trkpt>
      <trkpt lat="45.13689" lon="5.52641">
        <ele>982</ele>
      </trkpt>
      <trkpt lat="45.13726" lon="5.52634">
        <ele>982</ele>
      </trkpt>
      <trkpt lat="45.13761" lon="5.5263">
        <ele>983</ele>
      </trkpt>
      <trkpt lat="45.13904" lon="5.52628">
        <ele>991</ele>
      </trkpt>
      <trkpt lat="45.13933" lon="5.52629">
        <ele>992</ele>
      </trkpt>
      <trkpt lat="45.13999" lon="5.52639">
        <ele>996</ele>
      </trkpt>
      <trkpt lat="45.14095" lon="5.52641">
        <ele>994</ele>
      </trkpt>
      <trkpt lat="45.14267" lon="5.52635">
        <ele>994</ele>
      </trkpt>
      <trkpt lat="45.14373" lon="5.5263">
        <ele>997</ele>
      </trkpt>
      <trkpt lat="45.14583" lon="5.52625">
        <ele>1000</ele>
      </trkpt>
      <trkpt lat="45.14701" lon="5.5261">
        <ele>1002</ele>
      </trkpt>
      <trkpt lat="45.14998" lon="5.52566">
        <ele>997</ele>
      </trkpt>
      <trkpt lat="45.15014" lon="5.52567">
        <ele>996</ele>
      </trkpt>
      <trkpt lat="45.15048" lon="5.52575">
        <ele>996</ele>
      </trkpt>
      <trkpt lat="45.15077" lon="5.52586">
        <ele>996</ele>
      </trkpt>
      <trkpt lat="45.15818" lon="5.52881">
        <ele>1009</ele>
      </trkpt>
      <trkpt lat="45.16186" lon="5.53134">
        <ele>1015</ele>
      </trkpt>
      <trkpt lat="45.16526" lon="5.53364">
        <ele>1022</ele>
      </trkpt>
      <trkpt lat="45.16546" lon="5.53386">
        <ele>1022</ele>
      </trkpt>
      <trkpt lat="45.16559" lon="5.53397">
        <ele>1021</ele>
      </trkpt>
      <trkpt lat="45.16595" lon="5.53412">
        <ele>1021</ele>
      </trkpt>
      <trkpt lat="45.1676" lon="5.5352">
        <ele>1026</ele>
      </trkpt>
      <trkpt lat="45.16766" lon="5.53525">
        <ele>1026</ele>
      </trkpt>
      <trkpt lat="45.16765" lon="5.5353">
        <ele>1026</ele>
      </trkpt>
      <trkpt lat="45.16766" lon="5.5354">
        <ele>1026</ele>
      </trkpt>
      <trkpt lat="45.16769" lon="5.53544">
        <ele>1026</ele>
      </trkpt>
      <trkpt lat="45.16776" lon="5.53547">
        <ele>1026</ele>
      </trkpt>
      <trkpt lat="45.16783" lon="5.53542">
        <ele>1026</ele>
      </trkpt>
      <trkpt lat="45.16785" lon="5.53538">
        <ele>1026</ele>
      </trkpt>
      <trkpt lat="45.17095" lon="5.53752">
        <ele>1033</ele>
      </trkpt>
      <trkpt lat="45.17123" lon="5.53772">
        <ele>1032</ele>
      </trkpt>
      <trkpt lat="45.17142" lon="5.53791">
        <ele>1032</ele>
      </trkpt>
      <trkpt lat="45.17188" lon="5.5384">
        <ele>1031</ele>
      </trkpt>
      <trkpt lat="45.17257" lon="5.53919">
        <ele>1033</ele>
      </trkpt>
      <trkpt lat="45.17273" lon="5.53951">
        <ele>1034</ele>
      </trkpt>
      <trkpt lat="45.17269" lon="5.53956">
        <ele>1034</ele>
      </trkpt>
      <trkpt lat="45.17268" lon="5.53967">
        <ele>1035</ele>
      </trkpt>
      <trkpt lat="45.1727" lon="5.53973">
        <ele>1035</ele>
      </trkpt>
      <trkpt lat="45.17274" lon="5.53978">
        <ele>1035</ele>
      </trkpt>
      <trkpt lat="45.17278" lon="5.5398">
        <ele>1035</ele>
      </trkpt>
      <trkpt lat="45.17277" lon="5.5399">
        <ele>1035</ele>
      </trkpt>
      <trkpt lat="45.17282" lon="5.54052">
        <ele>1035</ele>
      </trkpt>
      <trkpt lat="45.17299" lon="5.54204">
        <ele>1038</ele>
      </trkpt>
      <trkpt lat="45.17352" lon="5.54207">
        <ele>1038</ele>
      </trkpt>
      <trkpt lat="45.17394" lon="5.54212">
        <ele>1041</ele>
      </trkpt>
      <trkpt lat="45.17395" lon="5.54284">
        <ele>1041</ele>
      </trkpt>
      <trkpt lat="45.17398" lon="5.54307">
        <ele>1041</ele>
      </trkpt>
      <trkpt lat="45.17411" lon="5.54332">
        <ele>1040</ele>
      </trkpt>
      <trkpt lat="45.17428" lon="5.54352">
        <ele>1041</ele>
      </trkpt>
      <trkpt lat="45.17474" lon="5.54252">
        <ele>1043</ele>
      </trkpt>
      <trkpt lat="45.17479" lon="5.54245">
        <ele>1044</ele>
      </trkpt>
      <trkpt lat="45.17484" lon="5.54244">
        <ele>1044</ele>
      </trkpt>
      <trkpt lat="45.17491" lon="5.54246">
        <ele>1044</ele>
      </trkpt>
      <trkpt lat="45.17525" lon="5.54271">
        <ele>1044</ele>
      </trkpt>
      <trkpt lat="45.17539" lon="5.54286">
        <ele>1045</ele>
      </trkpt>
      <trkpt lat="45.17545" lon="5.54295">
        <ele>1045</ele>
      </trkpt>
      <trkpt lat="45.1756" lon="5.54346">
        <ele>1045</ele>
      </trkpt>
      <trkpt lat="45.17565" lon="5.5436">
        <ele>1045</ele>
      </trkpt>
      <trkpt lat="45.17597" lon="5.54424">
        <ele>1044</ele>
      </trkpt>
      <trkpt lat="45.17613" lon="5.54449">
        <ele>1044</ele>
      </trkpt>
      <trkpt lat="45.17619" lon="5.54464">
        <ele>1044</ele>
      </trkpt>
      <trkpt lat="45.17681" lon="5.54634">
        <ele>1046</ele>
      </trkpt>
      <trkpt lat="45.17686" lon="5.54652">
        <ele>1047</ele>
      </trkpt>
      <trkpt lat="45.17689" lon="5.54671">
        <ele>1047</ele>
      </trkpt>
      <trkpt lat="45.17693" lon="5.54734">
        <ele>1046</ele>
      </trkpt>
      <trkpt lat="45.17696" lon="5.54754">
        <ele>1046</ele>
      </trkpt>
      <trkpt lat="45.17705" lon="5.54781">
        <ele>1047</ele>
      </trkpt>
      <trkpt lat="45.1781" lon="5.55011">
        <ele>1054</ele>
      </trkpt>
      <trkpt lat="45.17834" lon="5.55052">
        <ele>1056</ele>
      </trkpt>
      <trkpt lat="45.17867" lon="5.55114">
        <ele>1056</ele>
      </trkpt>
      <trkpt lat="45.17871" lon="5.55131">
        <ele>1056</ele>
      </trkpt>
      <trkpt lat="45.17893" lon="5.55203">
        <ele>1058</ele>
      </trkpt>
      <trkpt lat="45.17915" lon="5.55268">
        <ele>1060</ele>
      </trkpt>
      <trkpt lat="45.17939" lon="5.55327">
        <ele>1059</ele>
      </trkpt>
      <trkpt lat="45.17954" lon="5.55358">
        <ele>1059</ele>
      </trkpt>
      <trkpt lat="45.17997" lon="5.55421">
        <ele>1063</ele>
      </trkpt>
      <trkpt lat="45.18013" lon="5.55448">
        <ele>1063</ele>
      </trkpt>
      <trkpt lat="45.18085" lon="5.55587">
        <ele>1062</ele>
      </trkpt>
      <trkpt lat="45.18125" lon="5.55681">
        <ele>1066</ele>
      </trkpt>
      <trkpt lat="45.18159" lon="5.55734">
        <ele>1067</ele>
      </trkpt>
      <trkpt lat="45.18187" lon="5.55762">
        <ele>1069</ele>
      </trkpt>
      <trkpt lat="45.18257" lon="5.55816">
        <ele>1072</ele>
      </trkpt>
      <trkpt lat="45.18349" lon="5.5587">
        <ele>1072</ele>
      </trkpt>
      <trkpt lat="45.18375" lon="5.5589">
        <ele>1073</ele>
      </trkpt>
      <trkpt lat="45.18417" lon="5.55952">
        <ele>1075</ele>
      </trkpt>
      <trkpt lat="45.18459" lon="5.56003">
        <ele>1077</ele>
      </trkpt>
      <trkpt lat="45.18504" lon="5.56064">
        <ele>1078</ele>
      </trkpt>
      <trkpt lat="45.18528" lon="5.56112">
        <ele>1080</ele>
      </trkpt>
      <trkpt lat="45.18543" lon="5.56131">
        <ele>1081</ele>
      </trkpt>
      <trkpt lat="45.18618" lon="5.56193">
        <ele>1083</ele>
      </trkpt>
      <trkpt lat="45.18648" lon="5.562">
        <ele>1082</ele>
      </trkpt>
      <trkpt lat="45.18739" lon="5.56207">
        <ele>1083</ele>
      </trkpt>
      <trkpt lat="45.18768" lon="5.56215">
        <ele>1084</ele>
      </trkpt>
      <trkpt lat="45.18788" lon="5.56228">
        <ele>1083</ele>
      </trkpt>
      <trkpt lat="45.18811" lon="5.56247">
        <ele>1081</ele>
      </trkpt>
      <trkpt lat="45.18876" lon="5.56314">
        <ele>1080</ele>
      </trkpt>
      <trkpt lat="45.189" lon="5.5633">
        <ele>1078</ele>
      </trkpt>
      <trkpt lat="45.18917" lon="5.56334">
        <ele>1077</ele>
      </trkpt>
      <trkpt lat="45.1899" lon="5.5634">
        <ele>1088</ele>
      </trkpt>
      <trkpt lat="45.19019" lon="5.56356">
        <ele>1091</ele>
      </trkpt>
      <trkpt lat="45.19083" lon="5.56412">
        <ele>1091</ele>
      </trkpt>
      <trkpt lat="45.19109" lon="5.56432">
        <ele>1093</ele>
      </trkpt>
      <trkpt lat="45.19226" lon="5.56502">
        <ele>1094</ele>
      </trkpt>
      <trkpt lat="45.19318" lon="5.56567">
        <ele>1095</ele>
      </trkpt>
      <trkpt lat="45.19421" lon="5.56648">
        <ele>1097</ele>
      </trkpt>
      <trkpt lat="45.19504" lon="5.56718">
        <ele>1098</ele>
      </trkpt>
      <trkpt lat="45.1953" lon="5.56743">
        <ele>1095</ele>
      </trkpt>
      <trkpt lat="45.19585" lon="5.56809">
        <ele>1100</ele>
      </trkpt>
      <trkpt lat="45.19623" lon="5.56841">
        <ele>1102</ele>
      </trkpt>
      <trkpt lat="45.19643" lon="5.56852">
        <ele>1103</ele>
      </trkpt>
      <trkpt lat="45.19681" lon="5.56866">
        <ele>1103</ele>
      </trkpt>
      <trkpt lat="45.19698" lon="5.56871">
        <ele>1102</ele>
      </trkpt>
      <trkpt lat="45.19764" lon="5.56881">
        <ele>1102</ele>
      </trkpt>
      <trkpt lat="45.19794" lon="5.5689">
        <ele>1103</ele>
      </trkpt>
      <trkpt lat="45.19974" lon="5.56979">
        <ele>1110</ele>
      </trkpt>
      <trkpt lat="45.20045" lon="5.57008">
        <ele>1112</ele>
      </trkpt>
      <trkpt lat="45.20066" lon="5.5702">
        <ele>1112</ele>
      </trkpt>
      <trkpt lat="45.20118" lon="5.5706">
        <ele>1116</ele>
      </trkpt>
    </trkseg>
  </trk>
</gpx>